Wetterdaten: Donnerstag, 20.02.2014
Datum Zeit Temp. Aussen +5cm Feuchte Auss Luftdruck Regen Sonnenschein Regendauer UV Solar Windben
20.02.2014 00:00 7,3 C 6,1 C 91 % 1014,1 hPa 0,0 l/m 0 min 0 min 0,0 UV-I 0 W/m 0,0 km/h (0 Bft)
20.02.2014 00:02 7,3 C 6,1 C 91 % 1014,1 hPa 0,0 l/m 0 min 0 min 0,0 UV-I 0 W/m 0,0 km/h (0 Bft)
20.02.2014 00:06 7,3 C 6,1 C 91 % 1014,0 hPa 0,0 l/m 0 min 0 min 0,0 UV-I 0 W/m 10,3 km/h (2 Bft)
20.02.2014 00:08 7,3 C 6,1 C 91 % 1014,1 hPa 0,0 l/m 0 min 0 min 0,0 UV-I 0 W/m 2,6 km/h (1 Bft)
20.02.2014 00:10 7,3 C 6,1 C 91 % 1014,1 hPa 0,0 l/m 0 min 0 min 0,0 UV-I 0 W/m 0,0 km/h (0 Bft)
20.02.2014 00:12 7,3 C 6,1 C 91 % 1014,1 hPa 0,0 l/m 0 min 0 min 0,0 UV-I 0 W/m 5,1 km/h (1 Bft)
20.02.2014 00:14 7,3 C 6,1 C 91 % 1014,1 hPa 0,0 l/m 0 min 0 min 0,0 UV-I 0 W/m 0,0 km/h (0 Bft)
20.02.2014 00:16 7,3 C 6,1 C 91 % 1014,1 hPa 0,0 l/m 0 min 0 min 0,0 UV-I 0 W/m 0,0 km/h (0 Bft)
20.02.2014 00:18 7,3 C 6,1 C 91 % 1014,2 hPa 0,0 l/m 0 min 0 min 0,0 UV-I 0 W/m 10,3 km/h (2 Bft)
20.02.2014 00:20 7,3 C 6,1 C 91 % 1014,1 hPa 0,0 l/m 0 min 0 min 0,0 UV-I 0 W/m 5,1 km/h (1 Bft)
20.02.2014 00:22 7,3 C 6,1 C 91 % 1014,1 hPa 0,0 l/m 0 min 0 min 0,0 UV-I 0 W/m 5,1 km/h (1 Bft)
20.02.2014 00:24 7,3 C 6,1 C 91 % 1014,1 hPa 0,0 l/m 0 min 0 min 0,0 UV-I 0 W/m 20,6 km/h (4 Bft)
20.02.2014 00:26 7,3 C 6,1 C 91 % 1014,1 hPa 0,0 l/m 0 min 0 min 0,0 UV-I 0 W/m 0,0 km/h (0 Bft)
20.02.2014 00:28 7,3 C 6,1 C 91 % 1014,1 hPa 0,0 l/m 0 min 0 min 0,0 UV-I 0 W/m 0,0 km/h (0 Bft)
20.02.2014 00:30 7,3 C 6,1 C 91 % 1014,2 hPa 0,0 l/m 0 min 0 min 0,0 UV-I 0 W/m 0,0 km/h (0 Bft)
20.02.2014 00:32 7,3 C 6,1 C 91 % 1014,2 hPa 0,0 l/m 0 min 0 min 0,0 UV-I 0 W/m 0,0 km/h (0 Bft)
20.02.2014 00:34 7,3 C 6,1 C 91 % 1014,2 hPa 0,0 l/m 0 min 0 min 0,0 UV-I 0 W/m 0,0 km/h (0 Bft)
20.02.2014 00:36 7,3 C 6,1 C 91 % 1014,2 hPa 0,0 l/m 0 min 0 min 0,0 UV-I 0 W/m 0,0 km/h (0 Bft)
20.02.2014 00:38 7,3 C 6,1 C 91 % 1014,2 hPa 0,0 l/m 0 min 0 min 0,0 UV-I 0 W/m 2,6 km/h (1 Bft)
20.02.2014 00:40 7,3 C 6,1 C 91 % 1014,2 hPa 0,0 l/m 0 min 0 min 0,0 UV-I 0 W/m 0,0 km/h (0 Bft)
20.02.2014 00:42 7,3 C 6,1 C 91 % 1014,2 hPa 0,0 l/m 0 min 0 min 0,0 UV-I 0 W/m 2,6 km/h (1 Bft)
20.02.2014 00:44 7,3 C 6,1 C 91 % 1014,2 hPa 0,0 l/m 0 min 0 min 0,0 UV-I 0 W/m 0,0 km/h (0 Bft)
20.02.2014 00:46 7,3 C 5,6 C 91 % 1014,2 hPa 0,0 l/m 0 min 0 min 0,0 UV-I 0 W/m 7,7 km/h (2 Bft)
20.02.2014 00:48 7,2 C 5,6 C 91 % 1014,2 hPa 0,0 l/m 0 min 0 min 0,0 UV-I 0 W/m 7,7 km/h (2 Bft)
20.02.2014 00:50 7,2 C 5,6 C 91 % 1014,2 hPa 0,0 l/m 0 min 0 min 0,0 UV-I 0 W/m 7,7 km/h (2 Bft)
20.02.2014 00:52 7,2 C 5,6 C 91 % 1014,3 hPa 0,0 l/m 0 min 0 min 0,0 UV-I 0 W/m 0,0 km/h (0 Bft)
20.02.2014 00:54 7,2 C 5,6 C 91 % 1014,2 hPa 0,0 l/m 0 min 0 min 0,0 UV-I 0 W/m 2,6 km/h (1 Bft)
20.02.2014 00:56 7,2 C 5,6 C 91 % 1014,2 hPa 0,0 l/m 0 min 0 min 0,0 UV-I 0 W/m 2,6 km/h (1 Bft)
20.02.2014 00:58 7,2 C 5,6 C 91 % 1014,2 hPa 0,0 l/m 0 min 0 min 0,0 UV-I 0 W/m 10,3 km/h (2 Bft)
20.02.2014 01:00 7,2 C 5,6 C 91 % 1014,2 hPa 0,0 l/m 0 min 0 min 0,0 UV-I 0 W/m 7,7 km/h (2 Bft)
20.02.2014 01:02 7,2 C 5,6 C 91 % 1014,2 hPa 0,0 l/m 0 min 0 min 0,0 UV-I 0 W/m 0,0 km/h (0 Bft)
20.02.2014 01:04 7,1 C 5,6 C 91 % 1014,2 hPa 0,0 l/m 0 min 0 min 0,0 UV-I 0 W/m 7,7 km/h (2 Bft)
20.02.2014 01:06 7,1 C 5,6 C 91 % 1014,2 hPa 0,0 l/m 0 min 0 min 0,0 UV-I 0 W/m 0,0 km/h (0 Bft)
20.02.2014 01:08 7,1 C 5,6 C 91 % 1014,2 hPa 0,0 l/m 0 min 0 min 0,0 UV-I 0 W/m 2,6 km/h (1 Bft)
20.02.2014 01:10 7,1 C 5,6 C 91 % 1014,2 hPa 0,0 l/m 0 min 0 min 0,0 UV-I 0 W/m 7,7 km/h (2 Bft)
20.02.2014 01:12 7,1 C 5,6 C 91 % 1014,1 hPa 0,0 l/m 0 min 0 min 0,0 UV-I 0 W/m 5,1 km/h (1 Bft)
20.02.2014 01:14 7,1 C 5,6 C 91 % 1014,1 hPa 0,0 l/m 0 min 0 min 0,0 UV-I 0 W/m 7,7 km/h (2 Bft)
20.02.2014 01:16 7,1 C 5,6 C 91 % 1014,1 hPa 0,0 l/m 0 min 0 min 0,0 UV-I 0 W/m 7,7 km/h (2 Bft)
20.02.2014 01:18 7,1 C 5,6 C 90 % 1014,1 hPa 0,0 l/m 0 min 0 min 0,0 UV-I 0 W/m 5,1 km/h (1 Bft)
20.02.2014 01:20 7,1 C 5,6 C 90 % 1014,1 hPa 0,0 l/m 0 min 0 min 0,0 UV-I 0 W/m 5,1 km/h (1 Bft)
20.02.2014 01:22 7,1 C 5,6 C 90 % 1014,0 hPa 0,0 l/m 0 min 0 min 0,0 UV-I 0 W/m 0,0 km/h (0 Bft)
20.02.2014 01:24 7,1 C 5,6 C 90 % 1014,0 hPa 0,0 l/m 0 min 0 min 0,0 UV-I 0 W/m 7,7 km/h (2 Bft)
20.02.2014 01:26 7,1 C 5,6 C 90 % 1014,0 hPa 0,0 l/m 0 min 0 min 0,0 UV-I 0 W/m 7,7 km/h (2 Bft)
20.02.2014 01:28 7,1 C 5,6 C 90 % 1014,0 hPa 0,0 l/m 0 min 0 min 0,0 UV-I 0 W/m 7,7 km/h (2 Bft)
20.02.2014 01:30 7,1 C 5,6 C 90 % 1014,0 hPa 0,0 l/m 0 min 0 min 0,0 UV-I 0 W/m 10,3 km/h (2 Bft)
20.02.2014 01:32 7,1 C 5,6 C 90 % 1014,1 hPa 0,0 l/m 0 min 0 min 0,0 UV-I 0 W/m 7,7 km/h (2 Bft)
20.02.2014 01:34 7,1 C 5,6 C 90 % 1014,0 hPa 0,0 l/m 0 min 0 min 0,0 UV-I 0 W/m 10,3 km/h (2 Bft)
20.02.2014 01:36 7,1 C 5,6 C 90 % 1014,1 hPa 0,0 l/m 0 min 0 min 0,0 UV-I 0 W/m 7,7 km/h (2 Bft)
20.02.2014 01:38 7,1 C 5,6 C 90 % 1014,0 hPa 0,0 l/m 0 min 0 min 0,0 UV-I 0 W/m 7,7 km/h (2 Bft)
20.02.2014 01:40 7,1 C 5,6 C 90 % 1014,0 hPa 0,0 l/m 0 min 0 min 0,0 UV-I 0 W/m 5,1 km/h (1 Bft)
20.02.2014 01:42 7,1 C 5,6 C 90 % 1014,0 hPa 0,0 l/m 0 min 0 min 0,0 UV-I 0 W/m 15,4 km/h (3 Bft)
20.02.2014 01:44 7,1 C 5,6 C 90 % 1014,0 hPa 0,0 l/m 0 min 0 min 0,0 UV-I 0 W/m 0,0 km/h (0 Bft)
20.02.2014 01:46 7,1 C 5,6 C 90 % 1014,0 hPa 0,0 l/m 0 min 0 min 0,0 UV-I 0 W/m 12,9 km/h (3 Bft)
20.02.2014 01:48 7,1 C 5,6 C 90 % 1013,9 hPa 0,0 l/m 0 min 0 min 0,0 UV-I 0 W/m 5,1 km/h (1 Bft)
20.02.2014 01:50 7,1 C 5,6 C 90 % 1013,9 hPa 0,0 l/m 0 min 0 min 0,0 UV-I 0 W/m 5,1 km/h (1 Bft)
20.02.2014 01:52 7,1 C 5,6 C 90 % 1014,0 hPa 0,0 l/m 0 min 0 min 0,0 UV-I 0 W/m 0,0 km/h (0 Bft)
20.02.2014 01:54 7,0 C 5,6 C 90 % 1013,9 hPa 0,0 l/m 0 min 0 min 0,0 UV-I 0 W/m 0,0 km/h (0 Bft)
20.02.2014 01:56 7,0 C 5,6 C 90 % 1013,9 hPa 0,0 l/m 0 min 0 min 0,0 UV-I 0 W/m 0,0 km/h (0 Bft)
20.02.2014 01:58 7,0 C 5,6 C 90 % 1013,9 hPa 0,0 l/m 0 min 0 min 0,0 UV-I 0 W/m 0,0 km/h (0 Bft)
20.02.2014 02:00 7,0 C 5,6 C 90 % 1013,9 hPa 0,0 l/m 0 min 0 min 0,0 UV-I 0 W/m 7,7 km/h (2 Bft)
20.02.2014 02:02 7,0 C 5,6 C 90 % 1013,9 hPa 0,0 l/m 0 min 0 min 0,0 UV-I 0 W/m 7,7 km/h (2 Bft)
20.02.2014 02:04 7,0 C 5,6 C 90 % 1013,8 hPa 0,0 l/m 0 min 0 min 0,0 UV-I 0 W/m 7,7 km/h (2 Bft)
20.02.2014 02:06 7,0 C 5,6 C 90 % 1013,8 hPa 0,0 l/m 0 min 0 min 0,0 UV-I 0 W/m 10,3 km/h (2 Bft)
20.02.2014 02:08 7,0 C 5,6 C 90 % 1013,9 hPa 0,0 l/m 0 min 0 min 0,0 UV-I 0 W/m 10,3 km/h (2 Bft)
20.02.2014 02:10 7,0 C 5,6 C 90 % 1013,9 hPa 0,0 l/m 0 min 0 min 0,0 UV-I 0 W/m 10,3 km/h (2 Bft)
20.02.2014 02:12 7,0 C 5,6 C 90 % 1013,9 hPa 0,0 l/m 0 min 0 min 0,0 UV-I 0 W/m 12,9 km/h (3 Bft)
20.02.2014 02:14 7,0 C 5,6 C 90 % 1013,9 hPa 0,0 l/m 0 min 0 min 0,0 UV-I 0 W/m 2,6 km/h (1 Bft)
20.02.2014 02:16 7,0 C 5,6 C 90 % 1014,0 hPa 0,0 l/m 0 min 0 min 0,0 UV-I 0 W/m 12,9 km/h (3 Bft)
20.02.2014 02:18 7,0 C 5,6 C 90 % 1013,9 hPa 0,0 l/m 0 min 0 min 0,0 UV-I 0 W/m 0,0 km/h (0 Bft)
20.02.2014 02:20 7,0 C 5,6 C 90 % 1013,9 hPa 0,0 l/m 0 min 0 min 0,0 UV-I 0 W/m 15,4 km/h (3 Bft)
20.02.2014 02:22 7,0 C 5,6 C 90 % 1013,9 hPa 0,0 l/m 0 min 0 min 0,0 UV-I 0 W/m 5,1 km/h (1 Bft)
20.02.2014 02:24 7,0 C 5,6 C 90 % 1013,9 hPa 0,0 l/m 0 min 0 min 0,0 UV-I 0 W/m 10,3 km/h (2 Bft)
20.02.2014 02:26 7,0 C 5,6 C 90 % 1013,8 hPa 0,0 l/m 0 min 0 min 0,0 UV-I 0 W/m 12,9 km/h (3 Bft)
20.02.2014 02:28 7,0 C 5,6 C 90 % 1013,8 hPa 0,0 l/m 0 min 0 min 0,0 UV-I 0 W/m 7,7 km/h (2 Bft)
20.02.2014 02:30 7,0 C 5,6 C 90 % 1013,7 hPa 0,0 l/m 0 min 0 min 0,0 UV-I 0 W/m 7,7 km/h (2 Bft)
20.02.2014 02:32 7,0 C 5,6 C 90 % 1013,7 hPa 0,0 l/m 0 min 0 min 0,0 UV-I 0 W/m 7,7 km/h (2 Bft)
20.02.2014 02:34 7,0 C 5,6 C 90 % 1013,6 hPa 0,0 l/m 0 min 0 min 0,0 UV-I 0 W/m 10,3 km/h (2 Bft)
20.02.2014 02:36 7,0 C 5,6 C 90 % 1013,6 hPa 0,0 l/m 0 min 0 min 0,0 UV-I 0 W/m 2,6 km/h (1 Bft)
20.02.2014 02:38 7,0 C 5,6 C 90 % 1013,6 hPa 0,0 l/m 0 min 0 min 0,0 UV-I 0 W/m 10,3 km/h (2 Bft)
20.02.2014 02:40 7,0 C 5,6 C 90 % 1013,6 hPa 0,0 l/m 0 min 0 min 0,0 UV-I 0 W/m 10,3 km/h (2 Bft)
20.02.2014 02:42 7,0 C 5,6 C 90 % 1013,6 hPa 0,0 l/m 0 min 0 min 0,0 UV-I 0 W/m 2,6 km/h (1 Bft)
20.02.2014 02:44 7,0 C 5,6 C 90 % 1013,7 hPa 0,0 l/m 0 min 0 min 0,0 UV-I 0 W/m 10,3 km/h (2 Bft)
20.02.2014 02:46 7,0 C 5,6 C 90 % 1013,6 hPa 0,0 l/m 0 min 0 min 0,0 UV-I 0 W/m 0,0 km/h (0 Bft)
20.02.2014 02:48 7,0 C 5,6 C 90 % 1013,6 hPa 0,0 l/m 0 min 0 min 0,0 UV-I 0 W/m 5,1 km/h (1 Bft)
20.02.2014 02:50 7,0 C 5,6 C 90 % 1013,7 hPa 0,0 l/m 0 min 0 min 0,0 UV-I 0 W/m 10,3 km/h (2 Bft)
20.02.2014 02:52 7,0 C 5,6 C 89 % 1013,6 hPa 0,0 l/m 0 min 0 min 0,0 UV-I 0 W/m 7,7 km/h (2 Bft)
20.02.2014 02:54 7,0 C 5,6 C 89 % 1013,6 hPa 0,0 l/m 0 min 0 min 0,0 UV-I 0 W/m 7,7 km/h (2 Bft)
20.02.2014 02:56 7,0 C 5,6 C 89 % 1013,5 hPa 0,0 l/m 0 min 0 min 0,0 UV-I 0 W/m 7,7 km/h (2 Bft)
20.02.2014 02:58 7,0 C 5,6 C 90 % 1013,6 hPa 0,0 l/m 0 min 0 min 0,0 UV-I 0 W/m 2,6 km/h (1 Bft)
20.02.2014 03:00 7,0 C 5,6 C 90 % 1013,5 hPa 0,0 l/m 0 min 0 min 0,0 UV-I 0 W/m 0,0 km/h (0 Bft)
20.02.2014 03:02 7,0 C 5,6 C 90 % 1013,5 hPa 0,0 l/m 0 min 0 min 0,0 UV-I 0 W/m 0,0 km/h (0 Bft)
20.02.2014 03:04 6,9 C 5,6 C 90 % 1013,5 hPa 0,0 l/m 0 min 0 min 0,0 UV-I 0 W/m 7,7 km/h (2 Bft)
20.02.2014 03:06 6,9 C 5,6 C 90 % 1013,5 hPa 0,0 l/m 0 min 0 min 0,0 UV-I 0 W/m 0,0 km/h (0 Bft)
20.02.2014 03:08 6,9 C 5,6 C 90 % 1013,5 hPa 0,0 l/m 0 min 0 min 0,0 UV-I 0 W/m 0,0 km/h (0 Bft)
20.02.2014 03:10 6,9 C 5,6 C 90 % 1013,5 hPa 0,0 l/m 0 min 0 min 0,0 UV-I 0 W/m 0,0 km/h (0 Bft)
20.02.2014 03:12 6,9 C 5,6 C 90 % 1013,5 hPa 0,0 l/m 0 min 0 min 0,0 UV-I 0 W/m 0,0 km/h (0 Bft)
20.02.2014 03:14 6,9 C 5,6 C 90 % 1013,5 hPa 0,0 l/m 0 min 0 min 0,0 UV-I 0 W/m 10,3 km/h (2 Bft)
20.02.2014 03:16 6,9 C 5,6 C 90 % 1013,5 hPa 0,0 l/m 0 min 0 min 0,0 UV-I 0 W/m 5,1 km/h (1 Bft)
20.02.2014 03:18 6,9 C 5,6 C 90 % 1013,5 hPa 0,0 l/m 0 min 0 min 0,0 UV-I 0 W/m 7,7 km/h (2 Bft)
20.02.2014 03:20 6,9 C 5,6 C 90 % 1013,4 hPa 0,0 l/m 0 min 0 min 0,0 UV-I 0 W/m 5,1 km/h (1 Bft)
20.02.2014 03:22 6,9 C 5,6 C 90 % 1013,4 hPa 0,0 l/m 0 min 0 min 0,0 UV-I 0 W/m 7,7 km/h (2 Bft)
20.02.2014 03:24 6,9 C 5,6 C 90 % 1013,5 hPa 0,0 l/m 0 min 0 min 0,0 UV-I 0 W/m 0,0 km/h (0 Bft)
20.02.2014 03:26 6,9 C 5,6 C 90 % 1013,4 hPa 0,0 l/m 0 min 0 min 0,0 UV-I 0 W/m 0,0 km/h (0 Bft)
20.02.2014 03:28 6,9 C 5,6 C 90 % 1013,4 hPa 0,0 l/m 0 min 0 min 0,0 UV-I 0 W/m 10,3 km/h (2 Bft)
20.02.2014 03:30 6,9 C 5,6 C 90 % 1013,3 hPa 0,0 l/m 0 min 0 min 0,0 UV-I 0 W/m 5,1 km/h (1 Bft)
20.02.2014 03:32 6,9 C 5,6 C 90 % 1013,4 hPa 0,0 l/m 0 min 0 min 0,0 UV-I 0 W/m 5,1 km/h (1 Bft)
20.02.2014 03:34 6,9 C 5,6 C 90 % 1013,3 hPa 0,0 l/m 0 min 0 min 0,0 UV-I 0 W/m 2,6 km/h (1 Bft)
20.02.2014 03:36 6,9 C 5,6 C 90 % 1013,3 hPa 0,0 l/m 0 min 0 min 0,0 UV-I 0 W/m 2,6 km/h (1 Bft)
20.02.2014 03:38 6,9 C 5,6 C 90 % 1013,2 hPa 0,0 l/m 0 min 0 min 0,0 UV-I 0 W/m 10,3 km/h (2 Bft)
20.02.2014 03:40 6,9 C 5,6 C 90 % 1013,2 hPa 0,0 l/m 0 min 0 min 0,0 UV-I 0 W/m 0,0 km/h (0 Bft)
20.02.2014 03:42 6,9 C 5,6 C 90 % 1013,1 hPa 0,0 l/m 0 min 0 min 0,0 UV-I 0 W/m 7,7 km/h (2 Bft)
20.02.2014 03:44 6,9 C 5,6 C 90 % 1013,2 hPa 0,0 l/m 0 min 0 min 0,0 UV-I 0 W/m 2,6 km/h (1 Bft)
20.02.2014 03:46 6,9 C 5,6 C 90 % 1013,2 hPa 0,0 l/m 0 min 0 min 0,0 UV-I 0 W/m 0,0 km/h (0 Bft)
20.02.2014 03:48 6,9 C 5,6 C 90 % 1013,2 hPa 0,0 l/m 0 min 0 min 0,0 UV-I 0 W/m 0,0 km/h (0 Bft)
20.02.2014 03:50 6,8 C 5,6 C 90 % 1013,1 hPa 0,0 l/m 0 min 0 min 0,0 UV-I 0 W/m 0,0 km/h (0 Bft)
20.02.2014 03:52 6,8 C 5,6 C 90 % 1013,1 hPa 0,0 l/m 0 min 0 min 0,0 UV-I 0 W/m 2,6 km/h (1 Bft)
20.02.2014 03:54 6,8 C 5,6 C 90 % 1013,1 hPa 0,0 l/m 0 min 0 min 0,0 UV-I 0 W/m 0,0 km/h (0 Bft)
20.02.2014 03:56 6,8 C 5,6 C 90 % 1013,1 hPa 0,0 l/m 0 min 0 min 0,0 UV-I 0 W/m 2,6 km/h (1 Bft)
20.02.2014 03:58 6,8 C 5,6 C 90 % 1013,0 hPa 0,0 l/m 0 min 0 min 0,0 UV-I 0 W/m 0,0 km/h (0 Bft)
20.02.2014 04:00 6,8 C 5,6 C 90 % 1012,9 hPa 0,0 l/m 0 min 0 min 0,0 UV-I 0 W/m 7,7 km/h (2 Bft)
20.02.2014 04:02 6,7 C 5,6 C 90 % 1012,9 hPa 0,0 l/m 0 min 0 min 0,0 UV-I 0 W/m 0,0 km/h (0 Bft)
20.02.2014 04:04 6,7 C 5,6 C 90 % 1012,9 hPa 0,0 l/m 0 min 0 min 0,0 UV-I 0 W/m 0,0 km/h (0 Bft)
20.02.2014 04:06 6,7 C 5,6 C 90 % 1012,9 hPa 0,0 l/m 0 min 0 min 0,0 UV-I 0 W/m 5,1 km/h (1 Bft)
20.02.2014 04:08 6,7 C 5,6 C 90 % 1012,8 hPa 0,0 l/m 0 min 0 min 0,0 UV-I 0 W/m 5,1 km/h (1 Bft)
20.02.2014 04:10 6,7 C 5,0 C 91 % 1012,8 hPa 0,0 l/m 0 min 0 min 0,0 UV-I 0 W/m 5,1 km/h (1 Bft)
20.02.2014 04:12 6,7 C 5,0 C 91 % 1012,7 hPa 0,0 l/m 0 min 0 min 0,0 UV-I 0 W/m 0,0 km/h (0 Bft)
20.02.2014 04:14 6,7 C 5,0 C 91 % 1012,7 hPa 0,0 l/m 0 min 0 min 0,0 UV-I 0 W/m 0,0 km/h (0 Bft)
20.02.2014 04:16 6,7 C 5,0 C 91 % 1012,7 hPa 0,0 l/m 0 min 0 min 0,0 UV-I 0 W/m 0,0 km/h (0 Bft)
20.02.2014 04:18 6,7 C 5,0 C 91 % 1012,7 hPa 0,0 l/m 0 min 0 min 0,0 UV-I 0 W/m 0,0 km/h (0 Bft)
20.02.2014 04:20 6,6 C 5,0 C 91 % 1012,7 hPa 0,0 l/m 0 min 0 min 0,0 UV-I 0 W/m 0,0 km/h (0 Bft)
20.02.2014 04:22 6,6 C 5,0 C 91 % 1012,7 hPa 0,0 l/m 0 min 0 min 0,0 UV-I 0 W/m 0,0 km/h (0 Bft)
20.02.2014 04:24 6,6 C 5,6 C 91 % 1012,8 hPa 0,0 l/m 0 min 0 min 0,0 UV-I 0 W/m 2,6 km/h (1 Bft)
20.02.2014 04:26 6,6 C 5,0 C 91 % 1012,7 hPa 0,0 l/m 0 min 0 min 0,0 UV-I 0 W/m 0,0 km/h (0 Bft)
20.02.2014 04:28 6,6 C 5,0 C 91 % 1012,7 hPa 0,0 l/m 0 min 0 min 0,0 UV-I 0 W/m 2,6 km/h (1 Bft)
20.02.2014 04:30 6,6 C 5,0 C 91 % 1012,8 hPa 0,0 l/m 0 min 0 min 0,0 UV-I 0 W/m 10,3 km/h (2 Bft)
20.02.2014 04:32 6,6 C 5,0 C 91 % 1012,7 hPa 0,0 l/m 0 min 0 min 0,0 UV-I 0 W/m 0,0 km/h (0 Bft)
20.02.2014 04:34 6,6 C 5,0 C 91 % 1012,8 hPa 0,0 l/m 0 min 0 min 0,0 UV-I 0 W/m 5,1 km/h (1 Bft)
20.02.2014 04:36 6,6 C 5,6 C 91 % 1012,8 hPa 0,0 l/m 0 min 0 min 0,0 UV-I 0 W/m 5,1 km/h (1 Bft)
20.02.2014 04:38 6,6 C 5,0 C 91 % 1012,8 hPa 0,0 l/m 0 min 0 min 0,0 UV-I 0 W/m 0,0 km/h (0 Bft)
20.02.2014 04:40 6,6 C 5,0 C 91 % 1012,8 hPa 0,0 l/m 0 min 0 min 0,0 UV-I 0 W/m 5,1 km/h (1 Bft)
20.02.2014 04:42 6,6 C 5,0 C 91 % 1012,7 hPa 0,0 l/m 0 min 0 min 0,0 UV-I 0 W/m 0,0 km/h (0 Bft)
20.02.2014 04:44 6,6 C 5,6 C 91 % 1012,7 hPa 0,0 l/m 0 min 0 min 0,0 UV-I 0 W/m 5,1 km/h (1 Bft)
20.02.2014 04:46 6,6 C 5,0 C 91 % 1012,7 hPa 0,0 l/m 0 min 0 min 0,0 UV-I 0 W/m 0,0 km/h (0 Bft)
20.02.2014 04:48 6,6 C 5,0 C 91 % 1012,7 hPa 0,0 l/m 0 min 0 min 0,0 UV-I 0 W/m 0,0 km/h (0 Bft)
20.02.2014 04:50 6,6 C 5,6 C 91 % 1012,7 hPa 0,0 l/m 0 min 0 min 0,0 UV-I 0 W/m 12,9 km/h (3 Bft)
20.02.2014 04:52 6,7 C 5,6 C 91 % 1012,7 hPa 0,0 l/m 0 min 0 min 0,0 UV-I 0 W/m 0,0 km/h (0 Bft)
20.02.2014 04:54 6,7 C 5,6 C 91 % 1012,7 hPa 0,0 l/m 0 min 0 min 0,0 UV-I 0 W/m 2,6 km/h (1 Bft)
20.02.2014 04:56 6,7 C 5,6 C 91 % 1012,7 hPa 0,0 l/m 0 min 0 min 0,0 UV-I 0 W/m 0,0 km/h (0 Bft)
20.02.2014 04:58 6,7 C 5,6 C 91 % 1012,6 hPa 0,0 l/m 0 min 0 min 0,0 UV-I 0 W/m 7,7 km/h (2 Bft)
20.02.2014 05:00 6,7 C 5,6 C 91 % 1012,6 hPa 0,0 l/m 0 min 0 min 0,0 UV-I 0 W/m 2,6 km/h (1 Bft)
20.02.2014 05:02 6,7 C 5,6 C 91 % 1012,6 hPa 0,0 l/m 0 min 0 min 0,0 UV-I 0 W/m 5,1 km/h (1 Bft)
20.02.2014 05:04 6,7 C 5,6 C 91 % 1012,5 hPa 0,0 l/m 0 min 0 min 0,0 UV-I 0 W/m 10,3 km/h (2 Bft)
20.02.2014 05:06 6,7 C 5,0 C 91 % 1012,5 hPa 0,0 l/m 0 min 0 min 0,0 UV-I 0 W/m 7,7 km/h (2 Bft)
20.02.2014 05:08 6,7 C 5,0 C 91 % 1012,5 hPa 0,0 l/m 0 min 0 min 0,0 UV-I 0 W/m 7,7 km/h (2 Bft)
20.02.2014 05:10 6,7 C 5,0 C 91 % 1012,4 hPa 0,0 l/m 0 min 0 min 0,0 UV-I 0 W/m 5,1 km/h (1 Bft)
20.02.2014 05:12 6,7 C 5,0 C 91 % 1012,4 hPa 0,0 l/m 0 min 0 min 0,0 UV-I 0 W/m 7,7 km/h (2 Bft)
20.02.2014 05:14 6,7 C 5,0 C 91 % 1012,5 hPa 0,0 l/m 0 min 0 min 0,0 UV-I 0 W/m 7,7 km/h (2 Bft)
20.02.2014 05:16 6,7 C 5,0 C 91 % 1012,4 hPa 0,0 l/m 0 min 0 min 0,0 UV-I 0 W/m 2,6 km/h (1 Bft)
20.02.2014 05:18 6,7 C 5,0 C 91 % 1012,4 hPa 0,0 l/m 0 min 0 min 0,0 UV-I 0 W/m 7,7 km/h (2 Bft)
20.02.2014 05:20 6,7 C 5,0 C 91 % 1012,4 hPa 0,0 l/m 0 min 0 min 0,0 UV-I 0 W/m 12,9 km/h (3 Bft)
20.02.2014 05:22 6,7 C 5,0 C 91 % 1012,3 hPa 0,0 l/m 0 min 0 min 0,0 UV-I 0 W/m 2,6 km/h (1 Bft)
20.02.2014 05:24 6,7 C 5,0 C 91 % 1012,3 hPa 0,0 l/m 0 min 0 min 0,0 UV-I 0 W/m 5,1 km/h (1 Bft)
20.02.2014 05:26 6,7 C 5,0 C 91 % 1012,2 hPa 0,0 l/m 0 min 0 min 0,0 UV-I 0 W/m 5,1 km/h (1 Bft)
20.02.2014 05:28 6,6 C 5,0 C 91 % 1012,2 hPa 0,0 l/m 0 min 0 min 0,0 UV-I 0 W/m 2,6 km/h (1 Bft)
20.02.2014 05:30 6,6 C 5,0 C 91 % 1012,2 hPa 0,0 l/m 0 min 0 min 0,0 UV-I 0 W/m 0,0 km/h (0 Bft)
20.02.2014 05:32 6,6 C 5,0 C 91 % 1012,2 hPa 0,0 l/m 0 min 0 min 0,0 UV-I 0 W/m 10,3 km/h (2 Bft)
20.02.2014 05:34 6,6 C 5,0 C 91 % 1012,1 hPa 0,0 l/m 0 min 0 min 0,0 UV-I 0 W/m 12,9 km/h (3 Bft)
20.02.2014 05:36 6,5 C 5,0 C 91 % 1012,2 hPa 0,0 l/m 0 min 0 min 0,0 UV-I 0 W/m 10,3 km/h (2 Bft)
20.02.2014 05:38 6,4 C 5,0 C 91 % 1012,1 hPa 0,0 l/m 0 min 0 min 0,0 UV-I 0 W/m 7,7 km/h (2 Bft)
20.02.2014 05:40 6,4 C 5,0 C 90 % 1012,1 hPa 0,0 l/m 0 min 0 min 0,0 UV-I 0 W/m 2,6 km/h (1 Bft)
20.02.2014 05:42 6,4 C 5,0 C 91 % 1012,1 hPa 0,0 l/m 0 min 0 min 0,0 UV-I 0 W/m 7,7 km/h (2 Bft)
20.02.2014 05:44 6,4 C 5,0 C 91 % 1012,1 hPa 0,0 l/m 0 min 0 min 0,0 UV-I 0 W/m 7,7 km/h (2 Bft)
20.02.2014 05:46 6,4 C 5,0 C 91 % 1012,1 hPa 0,0 l/m 0 min 0 min 0,0 UV-I 0 W/m 10,3 km/h (2 Bft)
20.02.2014 05:48 6,4 C 5,0 C 91 % 1012,1 hPa 0,0 l/m 0 min 0 min 0,0 UV-I 0 W/m 7,7 km/h (2 Bft)
20.02.2014 05:50 6,4 C 5,0 C 91 % 1012,0 hPa 0,0 l/m 0 min 0 min 0,0 UV-I 0 W/m 7,7 km/h (2 Bft)
20.02.2014 05:52 6,4 C 5,0 C 91 % 1012,0 hPa 0,0 l/m 0 min 0 min 0,0 UV-I 0 W/m 0,0 km/h (0 Bft)
20.02.2014 05:54 6,4 C 5,0 C 91 % 1012,0 hPa 0,0 l/m 0 min 0 min 0,0 UV-I 0 W/m 5,1 km/h (1 Bft)
20.02.2014 05:56 6,3 C 5,0 C 91 % 1012,0 hPa 0,0 l/m 0 min 0 min 0,0 UV-I 0 W/m 7,7 km/h (2 Bft)
20.02.2014 05:58 6,3 C 5,0 C 91 % 1012,0 hPa 0,0 l/m 0 min 0 min 0,0 UV-I 0 W/m 10,3 km/h (2 Bft)
20.02.2014 06:00 6,3 C 5,0 C 91 % 1012,1 hPa 0,0 l/m 0 min 0 min 0,0 UV-I 0 W/m 10,3 km/h (2 Bft)
20.02.2014 06:02 6,3 C 5,0 C 91 % 1012,0 hPa 0,0 l/m 0 min 0 min 0,0 UV-I 0 W/m 5,1 km/h (1 Bft)
20.02.2014 06:04 6,3 C 5,0 C 91 % 1012,0 hPa 0,0 l/m 0 min 0 min 0,0 UV-I 0 W/m 7,7 km/h (2 Bft)
20.02.2014 06:06 6,3 C 5,0 C 91 % 1012,0 hPa 0,0 l/m 0 min 0 min 0,0 UV-I 0 W/m 7,7 km/h (2 Bft)
20.02.2014 06:08 6,3 C 5,0 C 91 % 1011,9 hPa 0,0 l/m 0 min 0 min 0,0 UV-I 0 W/m 15,4 km/h (3 Bft)
20.02.2014 06:10 6,3 C 5,0 C 91 % 1011,9 hPa 0,0 l/m 0 min 0 min 0,0 UV-I 0 W/m 10,3 km/h (2 Bft)
20.02.2014 06:12 6,3 C 5,0 C 91 % 1011,9 hPa 0,0 l/m 0 min 0 min 0,0 UV-I 0 W/m 15,4 km/h (3 Bft)
20.02.2014 06:14 6,3 C 5,0 C 91 % 1011,9 hPa 0,0 l/m 0 min 0 min 0,0 UV-I 0 W/m 12,9 km/h (3 Bft)
20.02.2014 06:16 6,3 C 5,0 C 91 % 1011,9 hPa 0,0 l/m 0 min 0 min 0,0 UV-I 0 W/m 10,3 km/h (2 Bft)
20.02.2014 06:18 6,3 C 5,0 C 91 % 1011,8 hPa 0,0 l/m 0 min 0 min 0,0 UV-I 0 W/m 10,3 km/h (2 Bft)
20.02.2014 06:20 6,3 C 5,0 C 91 % 1011,8 hPa 0,0 l/m 0 min 0 min 0,0 UV-I 0 W/m 7,7 km/h (2 Bft)
20.02.2014 06:22 6,3 C 5,0 C 91 % 1011,8 hPa 0,0 l/m 0 min 0 min 0,0 UV-I 0 W/m 7,7 km/h (2 Bft)
20.02.2014 06:24 6,3 C 5,0 C 90 % 1011,8 hPa 0,0 l/m 0 min 0 min 0,0 UV-I 0 W/m 5,1 km/h (1 Bft)
20.02.2014 06:26 6,3 C 5,0 C 90 % 1011,8 hPa 0,0 l/m 0 min 0 min 0,0 UV-I 0 W/m 7,7 km/h (2 Bft)
20.02.2014 06:28 6,3 C 5,0 C 90 % 1011,8 hPa 0,0 l/m 0 min 0 min 0,0 UV-I 0 W/m 10,3 km/h (2 Bft)
20.02.2014 06:30 6,2 C 5,0 C 90 % 1011,7 hPa 0,0 l/m 0 min 0 min 0,0 UV-I 0 W/m 12,9 km/h (3 Bft)
20.02.2014 06:32 6,2 C 5,0 C 90 % 1011,8 hPa 0,0 l/m 0 min 0 min 0,0 UV-I 0 W/m 12,9 km/h (3 Bft)
20.02.2014 06:34 6,3 C 5,0 C 90 % 1011,7 hPa 0,0 l/m 0 min 0 min 0,0 UV-I 0 W/m 12,9 km/h (3 Bft)
20.02.2014 06:36 6,2 C 5,0 C 90 % 1011,6 hPa 0,0 l/m 0 min 0 min 0,0 UV-I 0 W/m 12,9 km/h (3 Bft)
20.02.2014 06:38 6,3 C 5,0 C 90 % 1011,6 hPa 0,0 l/m 0 min 0 min 0,0 UV-I 0 W/m 10,3 km/h (2 Bft)
20.02.2014 06:40 6,2 C 5,0 C 90 % 1011,7 hPa 0,0 l/m 0 min 0 min 0,0 UV-I 0 W/m 10,3 km/h (2 Bft)
20.02.2014 06:42 6,2 C 5,0 C 90 % 1011,6 hPa 0,0 l/m 0 min 0 min 0,0 UV-I 0 W/m 10,3 km/h (2 Bft)
20.02.2014 06:44 6,2 C 5,0 C 90 % 1011,6 hPa 0,0 l/m 0 min 0 min 0,0 UV-I 0 W/m 10,3 km/h (2 Bft)
20.02.2014 06:46 6,2 C 5,0 C 90 % 1011,5 hPa 0,0 l/m 0 min 0 min 0,0 UV-I 0 W/m 10,3 km/h (2 Bft)
20.02.2014 06:48 6,2 C 5,0 C 90 % 1011,5 hPa 0,0 l/m 0 min 0 min 0,0 UV-I 0 W/m 10,3 km/h (2 Bft)
20.02.2014 06:50 6,2 C 5,0 C 90 % 1011,5 hPa 0,0 l/m 0 min 0 min 0,0 UV-I 0 W/m 5,1 km/h (1 Bft)
20.02.2014 06:52 6,2 C 5,0 C 90 % 1011,5 hPa 0,0 l/m 0 min 0 min 0,0 UV-I 0 W/m 5,1 km/h (1 Bft)
20.02.2014 06:54 6,2 C 5,0 C 90 % 1011,5 hPa 0,0 l/m 0 min 0 min 0,0 UV-I 0 W/m 10,3 km/h (2 Bft)
20.02.2014 06:56 6,2 C 5,0 C 90 % 1011,5 hPa 0,0 l/m 0 min 0 min 0,0 UV-I 0 W/m 7,7 km/h (2 Bft)
20.02.2014 06:58 6,2 C 5,0 C 90 % 1011,4 hPa 0,0 l/m 0 min 0 min 0,0 UV-I 0 W/m 15,4 km/h (3 Bft)
20.02.2014 07:00 6,2 C 5,0 C 90 % 1011,4 hPa 0,0 l/m 0 min 0 min 0,0 UV-I 0 W/m 12,9 km/h (3 Bft)
20.02.2014 07:02 6,2 C 5,0 C 90 % 1011,4 hPa 0,0 l/m 0 min 0 min 0,0 UV-I 0 W/m 15,4 km/h (3 Bft)
20.02.2014 07:04 6,2 C 5,0 C 90 % 1011,4 hPa 0,0 l/m 0 min 0 min 0,0 UV-I 0 W/m 10,3 km/h (2 Bft)
20.02.2014 07:06 6,2 C 5,0 C 90 % 1011,3 hPa 0,0 l/m 0 min 0 min 0,0 UV-I 0 W/m 15,4 km/h (3 Bft)
20.02.2014 07:08 6,2 C 5,0 C 89 % 1011,3 hPa 0,0 l/m 0 min 0 min 0,0 UV-I 0 W/m 15,4 km/h (3 Bft)
20.02.2014 07:10 6,2 C 5,0 C 89 % 1011,2 hPa 0,0 l/m 0 min 0 min 0,0 UV-I 0 W/m 12,9 km/h (3 Bft)
20.02.2014 07:12 6,2 C 5,0 C 89 % 1011,3 hPa 0,0 l/m 0 min 0 min 0,0 UV-I 0 W/m 10,3 km/h (2 Bft)
20.02.2014 07:14 6,1 C 4,4 C 89 % 1011,2 hPa 0,0 l/m 0 min 0 min 0,0 UV-I 0 W/m 12,9 km/h (3 Bft)
20.02.2014 07:16 6,1 C 4,4 C 89 % 1011,2 hPa 0,0 l/m 0 min 0 min 0,0 UV-I 0 W/m 18,0 km/h (3 Bft)
20.02.2014 07:18 6,0 C 4,4 C 89 % 1011,2 hPa 0,0 l/m 0 min 0 min 0,0 UV-I 0 W/m 5,1 km/h (1 Bft)
20.02.2014 07:20 5,9 C 4,4 C 89 % 1011,2 hPa 0,0 l/m 0 min 0 min 0,0 UV-I 0 W/m 7,7 km/h (2 Bft)
20.02.2014 07:22 5,9 C 4,4 C 89 % 1011,2 hPa 0,0 l/m 0 min 0 min 0,0 UV-I 0 W/m 5,1 km/h (1 Bft)
20.02.2014 07:24 5,8 C 3,9 C 90 % 1011,1 hPa 0,0 l/m 0 min 0 min 0,0 UV-I 0 W/m 12,9 km/h (3 Bft)
20.02.2014 07:26 5,7 C 3,9 C 90 % 1011,1 hPa 0,0 l/m 0 min 0 min 0,0 UV-I 0 W/m 10,3 km/h (2 Bft)
20.02.2014 07:28 5,7 C 3,9 C 90 % 1011,1 hPa 0,0 l/m 0 min 0 min 0,0 UV-I 0 W/m 10,3 km/h (2 Bft)
20.02.2014 07:30 5,6 C 3,9 C 90 % 1011,0 hPa 0,0 l/m 0 min 0 min 0,0 UV-I 0 W/m 7,7 km/h (2 Bft)
20.02.2014 07:32 5,6 C 3,9 C 90 % 1011,1 hPa 0,0 l/m 0 min 0 min 0,0 UV-I 5 W/m 10,3 km/h (2 Bft)
20.02.2014 07:34 5,6 C 3,9 C 90 % 1011,1 hPa 0,0 l/m 0 min 0 min 0,0 UV-I 5 W/m 7,7 km/h (2 Bft)
20.02.2014 07:36 5,5 C 3,9 C 90 % 1011,1 hPa 0,0 l/m 0 min 0 min 0,0 UV-I 5 W/m 7,7 km/h (2 Bft)
20.02.2014 07:38 5,5 C 3,9 C 90 % 1011,0 hPa 0,0 l/m 0 min 0 min 0,0 UV-I 5 W/m 10,3 km/h (2 Bft)
20.02.2014 07:40 5,5 C 3,9 C 91 % 1011,0 hPa 0,0 l/m 0 min 0 min 0,0 UV-I 5 W/m 10,3 km/h (2 Bft)
20.02.2014 07:42 5,5 C 3,9 C 91 % 1011,0 hPa 0,0 l/m 0 min 0 min 0,0 UV-I 7 W/m 0,0 km/h (0 Bft)
20.02.2014 07:44 5,4 C 3,9 C 91 % 1011,0 hPa 0,0 l/m 0 min 0 min 0,0 UV-I 7 W/m 5,1 km/h (1 Bft)
20.02.2014 07:46 5,4 C 3,9 C 91 % 1011,0 hPa 0,0 l/m 0 min 0 min 0,0 UV-I 7 W/m 0,0 km/h (0 Bft)
20.02.2014 07:48 5,3 C 3,9 C 95 % 1011,0 hPa 0,0 l/m 0 min 0 min 0,0 UV-I 9 W/m 7,7 km/h (2 Bft)
20.02.2014 07:50 5,3 C 3,9 C 90 % 1011,0 hPa 0,0 l/m 0 min 0 min 0,0 UV-I 11 W/m 10,3 km/h (2 Bft)
20.02.2014 07:52 5,3 C 3,9 C 91 % 1011,0 hPa 0,0 l/m 0 min 0 min 0,0 UV-I 11 W/m 15,4 km/h (3 Bft)
20.02.2014 07:54 5,3 C 3,9 C 91 % 1011,0 hPa 0,0 l/m 0 min 0 min 0,0 UV-I 11 W/m 12,9 km/h (3 Bft)
20.02.2014 07:56 5,3 C 3,9 C 91 % 1011,0 hPa 0,0 l/m 0 min 0 min 0,0 UV-I 12 W/m 10,3 km/h (2 Bft)
20.02.2014 07:58 5,3 C 3,9 C 91 % 1011,0 hPa 0,0 l/m 0 min 0 min 0,0 UV-I 12 W/m 5,1 km/h (1 Bft)
20.02.2014 08:00 5,3 C 3,9 C 91 % 1011,1 hPa 0,0 l/m 0 min 0 min 0,0 UV-I 14 W/m 10,3 km/h (2 Bft)
20.02.2014 08:02 5,2 C 3,9 C 91 % 1011,0 hPa 0,0 l/m 0 min 0 min 0,0 UV-I 14 W/m 10,3 km/h (2 Bft)
20.02.2014 08:04 5,2 C 3,9 C 91 % 1011,0 hPa 0,0 l/m 0 min 0 min 0,0 UV-I 16 W/m 12,9 km/h (3 Bft)
20.02.2014 08:06 5,2 C 3,3 C 91 % 1011,0 hPa 0,0 l/m 0 min 0 min 0,0 UV-I 18 W/m 10,3 km/h (2 Bft)
20.02.2014 08:08 5,2 C 3,3 C 91 % 1011,0 hPa 0,0 l/m 0 min 0 min 0,0 UV-I 21 W/m 7,7 km/h (2 Bft)
20.02.2014 08:10 5,1 C 3,3 C 91 % 1011,0 hPa 0,0 l/m 0 min 0 min 0,0 UV-I 21 W/m 7,7 km/h (2 Bft)
20.02.2014 08:12 5,1 C 3,9 C 91 % 1011,0 hPa 0,0 l/m 0 min 0 min 0,0 UV-I 23 W/m 12,9 km/h (3 Bft)
20.02.2014 08:14 5,2 C 3,9 C 91 % 1011,0 hPa 0,0 l/m 0 min 0 min 0,0 UV-I 23 W/m 10,3 km/h (2 Bft)
20.02.2014 08:16 5,2 C 3,9 C 91 % 1011,0 hPa 0,0 l/m 0 min 0 min 0,0 UV-I 25 W/m 10,3 km/h (2 Bft)
20.02.2014 08:18 5,2 C 3,9 C 91 % 1011,0 hPa 0,0 l/m 0 min 0 min 0,0 UV-I 25 W/m 10,3 km/h (2 Bft)
20.02.2014 08:20 5,2 C 3,9 C 91 % 1011,0 hPa 0,0 l/m 0 min 0 min 0,0 UV-I 26 W/m 10,3 km/h (2 Bft)
20.02.2014 08:22 5,3 C 3,9 C 91 % 1011,0 hPa 0,0 l/m 0 min 0 min 0,0 UV-I 26 W/m 12,9 km/h (3 Bft)
20.02.2014 08:24 5,3 C 3,9 C 91 % 1011,0 hPa 0,0 l/m 0 min 0 min 0,0 UV-I 25 W/m 10,3 km/h (2 Bft)
20.02.2014 08:26 5,3 C 3,9 C 91 % 1010,9 hPa 0,0 l/m 0 min 0 min 0,0 UV-I 25 W/m 10,3 km/h (2 Bft)
20.02.2014 08:28 5,4 C 3,9 C 91 % 1010,9 hPa 0,0 l/m 0 min 0 min 0,0 UV-I 25 W/m 10,3 km/h (2 Bft)
20.02.2014 08:30 5,4 C 3,9 C 91 % 1010,9 hPa 0,0 l/m 0 min 0 min 0,0 UV-I 23 W/m 10,3 km/h (2 Bft)
20.02.2014 08:32 5,4 C 3,9 C 91 % 1010,9 hPa 0,0 l/m 0 min 0 min 0,0 UV-I 23 W/m 7,7 km/h (2 Bft)
20.02.2014 08:34 5,4 C 3,9 C 91 % 1010,9 hPa 0,0 l/m 0 min 0 min 0,0 UV-I 25 W/m 12,9 km/h (3 Bft)
20.02.2014 08:36 5,4 C 3,9 C 91 % 1010,9 hPa 0,0 l/m 0 min 0 min 0,0 UV-I 26 W/m 15,4 km/h (3 Bft)
20.02.2014 08:38 5,4 C 3,9 C 91 % 1010,8 hPa 0,0 l/m 0 min 0 min 0,0 UV-I 25 W/m 10,3 km/h (2 Bft)
20.02.2014 08:40 5,4 C 3,9 C 91 % 1010,9 hPa 0,0 l/m 0 min 0 min 0,0 UV-I 23 W/m 15,4 km/h (3 Bft)
20.02.2014 08:42 5,4 C 3,9 C 91 % 1010,8 hPa 0,0 l/m 0 min 0 min 0,0 UV-I 25 W/m 15,4 km/h (3 Bft)
20.02.2014 08:44 5,5 C 3,9 C 91 % 1010,8 hPa 0,0 l/m 0 min 0 min 0,0 UV-I 28 W/m 15,4 km/h (3 Bft)
20.02.2014 08:46 5,5 C 3,9 C 90 % 1010,8 hPa 0,0 l/m 0 min 0 min 0,0 UV-I 39 W/m 15,4 km/h (3 Bft)
20.02.2014 08:48 5,6 C 4,4 C 90 % 1010,8 hPa 0,0 l/m 0 min 0 min 0,0 UV-I 74 W/m 20,6 km/h (4 Bft)
20.02.2014 08:50 5,7 C 4,4 C 90 % 1010,7 hPa 0,0 l/m 0 min 0 min 0,0 UV-I 91 W/m 15,4 km/h (3 Bft)
20.02.2014 08:52 5,7 C 4,4 C 90 % 1010,8 hPa 0,0 l/m 2 min 0 min 0,0 UV-I 95 W/m 18,0 km/h (3 Bft)
20.02.2014 08:54 5,8 C 4,4 C 90 % 1010,8 hPa 0,0 l/m 2 min 0 min 0,0 UV-I 98 W/m 15,4 km/h (3 Bft)
20.02.2014 08:56 5,8 C 4,4 C 90 % 1010,7 hPa 0,0 l/m 2 min 0 min 0,0 UV-I 105 W/m 20,6 km/h (4 Bft)
20.02.2014 08:58 5,9 C 4,4 C 90 % 1010,7 hPa 0,0 l/m 2 min 0 min 0,0 UV-I 109 W/m 12,9 km/h (3 Bft)
20.02.2014 09:00 6,0 C 4,4 C 89 % 1010,6 hPa 0,0 l/m 2 min 0 min 0,0 UV-I 114 W/m 10,3 km/h (2 Bft)
20.02.2014 09:02 6,1 C 4,4 C 89 % 1010,6 hPa 0,0 l/m 2 min 0 min 0,0 UV-I 121 W/m 10,3 km/h (2 Bft)
20.02.2014 09:04 6,2 C 5,0 C 89 % 1010,6 hPa 0,0 l/m 2 min 0 min 0,0 UV-I 125 W/m 18,0 km/h (3 Bft)
20.02.2014 09:06 6,2 C 5,0 C 89 % 1010,5 hPa 0,0 l/m 2 min 0 min 0,0 UV-I 132 W/m 23,2 km/h (4 Bft)
20.02.2014 09:08 6,3 C 5,0 C 89 % 1010,5 hPa 0,0 l/m 2 min 0 min 0,0 UV-I 137 W/m 10,3 km/h (2 Bft)
20.02.2014 09:10 6,4 C 5,0 C 89 % 1010,4 hPa 0,0 l/m 2 min 0 min 0,0 UV-I 141 W/m 12,9 km/h (3 Bft)
20.02.2014 09:12 6,4 C 5,0 C 88 % 1010,5 hPa 0,0 l/m 2 min 0 min 0,0 UV-I 148 W/m 20,6 km/h (4 Bft)
20.02.2014 09:14 6,5 C 5,0 C 88 % 1010,4 hPa 0,0 l/m 2 min 0 min 0,0 UV-I 153 W/m 15,4 km/h (3 Bft)
20.02.2014 09:16 6,6 C 5,0 C 88 % 1010,4 hPa 0,0 l/m 2 min 0 min 0,0 UV-I 158 W/m 18,0 km/h (3 Bft)
20.02.2014 09:18 6,7 C 5,0 C 88 % 1010,3 hPa 0,0 l/m 2 min 0 min 0,0 UV-I 162 W/m 15,4 km/h (3 Bft)
20.02.2014 09:20 6,7 C 5,6 C 87 % 1010,3 hPa 0,0 l/m 2 min 0 min 0,0 UV-I 169 W/m 15,4 km/h (3 Bft)
20.02.2014 09:22 6,8 C 5,6 C 87 % 1010,4 hPa 0,0 l/m 2 min 0 min 0,0 UV-I 176 W/m 12,9 km/h (3 Bft)
20.02.2014 09:24 6,9 C 5,6 C 87 % 1010,3 hPa 0,0 l/m 2 min 0 min 0,0 UV-I 181 W/m 10,3 km/h (2 Bft)
20.02.2014 09:26 7,0 C 5,6 C 87 % 1010,3 hPa 0,0 l/m 2 min 0 min 0,0 UV-I 186 W/m 18,0 km/h (3 Bft)
20.02.2014 09:28 7,2 C 5,6 C 87 % 1010,3 hPa 0,0 l/m 2 min 0 min 0,0 UV-I 192 W/m 25,7 km/h (4 Bft)
20.02.2014 09:30 7,3 C 5,6 C 86 % 1010,3 hPa 0,0 l/m 2 min 0 min 0,0 UV-I 199 W/m 20,6 km/h (4 Bft)
20.02.2014 09:32 7,4 C 5,6 C 86 % 1010,2 hPa 0,0 l/m 2 min 0 min 0,0 UV-I 206 W/m 18,0 km/h (3 Bft)
20.02.2014 09:34 7,6 C 6,1 C 85 % 1010,3 hPa 0,0 l/m 2 min 0 min 0,0 UV-I 211 W/m 18,0 km/h (3 Bft)
20.02.2014 09:36 7,8 C 6,1 C 85 % 1010,2 hPa 0,0 l/m 2 min 0 min 0,0 UV-I 216 W/m 18,0 km/h (3 Bft)
20.02.2014 09:38 7,9 C 6,1 C 84 % 1010,2 hPa 0,0 l/m 2 min 0 min 0,0 UV-I 225 W/m 12,9 km/h (3 Bft)
20.02.2014 09:40 8,0 C 6,1 C 84 % 1010,1 hPa 0,0 l/m 2 min 0 min 0,0 UV-I 229 W/m 20,6 km/h (4 Bft)
20.02.2014 09:42 8,1 C 6,1 C 84 % 1010,1 hPa 0,0 l/m 2 min 0 min 0,0 UV-I 237 W/m 15,4 km/h (3 Bft)
20.02.2014 09:44 8,2 C 6,7 C 83 % 1010,0 hPa 0,0 l/m 2 min 0 min 0,0 UV-I 243 W/m 25,7 km/h (4 Bft)
20.02.2014 09:46 8,3 C 6,7 C 83 % 1010,1 hPa 0,0 l/m 2 min 0 min 0,0 UV-I 244 W/m 20,6 km/h (4 Bft)
20.02.2014 09:48 8,4 C 6,7 C 83 % 1010,0 hPa 0,0 l/m 2 min 0 min 0,0 UV-I 253 W/m 28,3 km/h (4 Bft)
20.02.2014 09:50 8,5 C 6,7 C 83 % 1010,0 hPa 0,0 l/m 2 min 0 min 0,0 UV-I 257 W/m 23,2 km/h (4 Bft)
20.02.2014 09:52 8,6 C 6,7 C 82 % 1010,0 hPa 0,0 l/m 2 min 0 min 0,0 UV-I 250 W/m 30,9 km/h (5 Bft)
20.02.2014 09:54 8,7 C 6,7 C 82 % 1009,9 hPa 0,0 l/m 2 min 0 min 0,0 UV-I 257 W/m 28,3 km/h (4 Bft)
20.02.2014 09:56 8,8 C 7,2 C 81 % 1009,9 hPa 0,0 l/m 2 min 0 min 0,0 UV-I 267 W/m 15,4 km/h (3 Bft)
20.02.2014 09:58 8,9 C 7,2 C 81 % 1009,9 hPa 0,0 l/m 2 min 0 min 0,0 UV-I 271 W/m 18,0 km/h (3 Bft)
20.02.2014 10:00 9,1 C 7,2 C 80 % 1009,9 hPa 0,0 l/m 2 min 0 min 0,0 UV-I 258 W/m 25,7 km/h (4 Bft)
20.02.2014 10:02 9,1 C 7,2 C 80 % 1009,8 hPa 0,0 l/m 2 min 0 min 0,0 UV-I 269 W/m 25,7 km/h (4 Bft)
20.02.2014 10:04 9,2 C 7,8 C 80 % 1009,8 hPa 0,0 l/m 2 min 0 min 0,0 UV-I 279 W/m 20,6 km/h (4 Bft)
20.02.2014 10:06 9,3 C 7,8 C 79 % 1009,7 hPa 0,0 l/m 2 min 0 min 0,0 UV-I 287 W/m 25,7 km/h (4 Bft)
20.02.2014 10:08 9,4 C 7,8 C 79 % 1009,7 hPa 0,0 l/m 2 min 0 min 0,0 UV-I 301 W/m 15,4 km/h (3 Bft)
20.02.2014 10:10 9,5 C 7,8 C 79 % 1009,7 hPa 0,0 l/m 2 min 0 min 0,0 UV-I 309 W/m 10,3 km/h (2 Bft)
20.02.2014 10:12 9,6 C 8,3 C 79 % 1009,6 hPa 0,0 l/m 2 min 0 min 0,0 UV-I 329 W/m 25,7 km/h (4 Bft)
20.02.2014 10:14 9,7 C 8,3 C 78 % 1009,5 hPa 0,0 l/m 2 min 0 min 0,0 UV-I 283 W/m 25,7 km/h (4 Bft)
20.02.2014 10:16 9,8 C 8,9 C 77 % 1009,5 hPa 0,0 l/m 2 min 0 min 0,0 UV-I 299 W/m 28,3 km/h (4 Bft)
20.02.2014 10:18 9,9 C 8,9 C 77 % 1009,4 hPa 0,0 l/m 2 min 0 min 0,0 UV-I 257 W/m 23,2 km/h (4 Bft)
20.02.2014 10:20 9,8 C 8,9 C 77 % 1009,5 hPa 0,0 l/m 2 min 0 min 0,0 UV-I 195 W/m 23,2 km/h (4 Bft)
20.02.2014 10:22 9,8 C 8,9 C 77 % 1009,4 hPa 0,0 l/m 0 min 0 min 0,0 UV-I 162 W/m 12,9 km/h (3 Bft)
20.02.2014 10:24 9,8 C 8,9 C 77 % 1009,4 hPa 0,0 l/m 0 min 0 min 0,0 UV-I 149 W/m 20,6 km/h (4 Bft)
20.02.2014 10:26 9,8 C 8,9 C 77 % 1009,4 hPa 0,0 l/m 0 min 0 min 0,0 UV-I 176 W/m 20,6 km/h (4 Bft)
20.02.2014 10:28 9,8 C 8,9 C 77 % 1009,4 hPa 0,0 l/m 2 min 0 min 0,0 UV-I 221 W/m 18,0 km/h (3 Bft)
20.02.2014 10:30 9,8 C 8,9 C 77 % 1009,4 hPa 0,0 l/m 2 min 0 min 0,0 UV-I 213 W/m 23,2 km/h (4 Bft)
20.02.2014 10:32 9,8 C 8,9 C 77 % 1009,4 hPa 0,0 l/m 0 min 0 min 0,0 UV-I 181 W/m 15,4 km/h (3 Bft)
20.02.2014 10:34 9,8 C 8,9 C 77 % 1009,4 hPa 0,0 l/m 0 min 0 min 0,0 UV-I 171 W/m 23,2 km/h (4 Bft)
20.02.2014 10:36 9,8 C 8,9 C 77 % 1009,3 hPa 0,0 l/m 0 min 0 min 0,0 UV-I 158 W/m 30,9 km/h (5 Bft)
20.02.2014 10:38 9,8 C 8,9 C 77 % 1009,3 hPa 0,0 l/m 0 min 0 min 0,0 UV-I 158 W/m 18,0 km/h (3 Bft)
20.02.2014 10:40 9,8 C 8,9 C 77 % 1009,3 hPa 0,0 l/m 0 min 0 min 0,0 UV-I 190 W/m 28,3 km/h (4 Bft)
20.02.2014 10:42 9,8 C 9,4 C 77 % 1009,3 hPa 0,0 l/m 2 min 0 min 0,0 UV-I 255 W/m 20,6 km/h (4 Bft)
20.02.2014 10:44 9,9 C 9,4 C 77 % 1009,3 hPa 0,0 l/m 2 min 0 min 0,0 UV-I 241 W/m 30,9 km/h (5 Bft)
20.02.2014 10:46 9,9 C 9,4 C 77 % 1009,3 hPa 0,0 l/m 2 min 0 min 0,0 UV-I 269 W/m 23,2 km/h (4 Bft)
20.02.2014 10:48 9,9 C 9,4 C 77 % 1009,2 hPa 0,0 l/m 2 min 0 min 0,0 UV-I 246 W/m 25,7 km/h (4 Bft)
20.02.2014 10:50 10,0 C 9,4 C 76 % 1009,3 hPa 0,0 l/m 0 min 0 min 0,0 UV-I 209 W/m 23,2 km/h (4 Bft)
20.02.2014 10:52 10,0 C 9,4 C 76 % 1009,2 hPa 0,0 l/m 0 min 0 min 0,0 UV-I 179 W/m 23,2 km/h (4 Bft)
20.02.2014 10:54 10,0 C 9,4 C 76 % 1009,2 hPa 0,0 l/m 2 min 0 min 0,0 UV-I 223 W/m 23,2 km/h (4 Bft)
20.02.2014 10:56 10,0 C 9,4 C 76 % 1009,1 hPa 0,0 l/m 2 min 0 min 0,0 UV-I 227 W/m 30,9 km/h (5 Bft)
20.02.2014 10:58 10,0 C 9,4 C 76 % 1009,2 hPa 0,0 l/m 2 min 0 min 0,0 UV-I 243 W/m 33,5 km/h (5 Bft)
20.02.2014 11:00 10,1 C 9,4 C 76 % 1009,1 hPa 0,0 l/m 2 min 0 min 0,0 UV-I 225 W/m 28,3 km/h (4 Bft)
20.02.2014 11:02 10,1 C 9,4 C 77 % 1009,0 hPa 0,0 l/m 0 min 0 min 0,0 UV-I 207 W/m 7,7 km/h (2 Bft)
20.02.2014 11:04 10,2 C 9,4 C 77 % 1008,9 hPa 0,0 l/m 0 min 0 min 0,0 UV-I 216 W/m 12,9 km/h (3 Bft)
20.02.2014 11:06 10,2 C 10,0 C 77 % 1008,9 hPa 0,0 l/m 2 min 0 min 0,0 UV-I 229 W/m 18,0 km/h (3 Bft)
20.02.2014 11:08 10,3 C 10,0 C 76 % 1008,8 hPa 0,0 l/m 2 min 0 min 0,0 UV-I 253 W/m 20,6 km/h (4 Bft)
20.02.2014 11:10 10,4 C 10,0 C 76 % 1008,9 hPa 0,0 l/m 2 min 0 min 0,0 UV-I 272 W/m 28,3 km/h (4 Bft)
20.02.2014 11:12 10,5 C 10,0 C 76 % 1008,8 hPa 0,0 l/m 2 min 0 min 0,0 UV-I 343 W/m 18,0 km/h (3 Bft)
20.02.2014 11:14 10,6 C 10,0 C 75 % 1008,8 hPa 0,0 l/m 2 min 0 min 0,0 UV-I 285 W/m 25,7 km/h (4 Bft)
20.02.2014 11:16 10,6 C 10,0 C 75 % 1008,8 hPa 0,0 l/m 2 min 0 min 0,0 UV-I 241 W/m 28,3 km/h (4 Bft)
20.02.2014 11:18 10,7 C 10,0 C 75 % 1008,7 hPa 0,0 l/m 0 min 0 min 0,0 UV-I 214 W/m 15,4 km/h (3 Bft)
20.02.2014 11:20 10,7 C 10,0 C 75 % 1008,7 hPa 0,0 l/m 0 min 0 min 0,0 UV-I 214 W/m 28,3 km/h (4 Bft)
20.02.2014 11:22 10,7 C 10,0 C 75 % 1008,7 hPa 0,0 l/m 2 min 0 min 0,0 UV-I 329 W/m 25,7 km/h (4 Bft)
20.02.2014 11:24 10,8 C 10,6 C 75 % 1008,6 hPa 0,0 l/m 2 min 0 min 0,0 UV-I 345 W/m 25,7 km/h (4 Bft)
20.02.2014 11:26 10,8 C 10,6 C 74 % 1008,6 hPa 0,0 l/m 2 min 0 min 0,0 UV-I 285 W/m 28,3 km/h (4 Bft)
20.02.2014 11:28 10,9 C 10,6 C 74 % 1008,7 hPa 0,0 l/m 2 min 0 min 0,0 UV-I 248 W/m 25,7 km/h (4 Bft)
20.02.2014 11:30 10,9 C 10,6 C 74 % 1008,6 hPa 0,0 l/m 0 min 0 min 0,0 UV-I 223 W/m 18,0 km/h (3 Bft)
20.02.2014 11:32 10,9 C 10,6 C 74 % 1008,6 hPa 0,0 l/m 0 min 0 min 0,0 UV-I 225 W/m 18,0 km/h (3 Bft)
20.02.2014 11:34 10,9 C 10,6 C 74 % 1008,6 hPa 0,0 l/m 0 min 0 min 0,0 UV-I 236 W/m 15,4 km/h (3 Bft)
20.02.2014 11:36 10,9 C 10,6 C 74 % 1008,6 hPa 0,0 l/m 0 min 0 min 0,0 UV-I 234 W/m 30,9 km/h (5 Bft)
20.02.2014 11:38 10,9 C 10,6 C 73 % 1008,5 hPa 0,0 l/m 2 min 0 min 0,0 UV-I 246 W/m 20,6 km/h (4 Bft)
20.02.2014 11:40 11,0 C 10,6 C 74 % 1008,5 hPa 0,0 l/m 2 min 0 min 0,0 UV-I 262 W/m 10,3 km/h (2 Bft)
20.02.2014 11:42 11,1 C 10,6 C 74 % 1008,5 hPa 0,0 l/m 0 min 0 min 0,0 UV-I 234 W/m 18,0 km/h (3 Bft)
20.02.2014 11:44 11,2 C 10,6 C 74 % 1008,5 hPa 0,0 l/m 0 min 0 min 0,0 UV-I 244 W/m 25,7 km/h (4 Bft)
20.02.2014 11:46 11,1 C 10,6 C 73 % 1008,4 hPa 0,0 l/m 0 min 0 min 0,0 UV-I 216 W/m 20,6 km/h (4 Bft)
20.02.2014 11:48 11,2 C 10,6 C 74 % 1008,5 hPa 0,0 l/m 0 min 0 min 0,0 UV-I 214 W/m 12,9 km/h (3 Bft)
20.02.2014 11:50 11,2 C 10,6 C 74 % 1008,4 hPa 0,0 l/m 0 min 0 min 0,0 UV-I 241 W/m 23,2 km/h (4 Bft)
20.02.2014 11:52 11,2 C 10,6 C 73 % 1008,4 hPa 0,0 l/m 2 min 0 min 0,0 UV-I 255 W/m 12,9 km/h (3 Bft)
20.02.2014 11:54 11,3 C 11,1 C 74 % 1008,4 hPa 0,0 l/m 2 min 0 min 0,0 UV-I 260 W/m 18,0 km/h (3 Bft)
20.02.2014 11:56 11,3 C 11,1 C 74 % 1008,3 hPa 0,0 l/m 0 min 0 min 0,0 UV-I 243 W/m 15,4 km/h (3 Bft)
20.02.2014 11:58 11,4 C 11,1 C 73 % 1008,3 hPa 0,0 l/m 0 min 0 min 0,0 UV-I 206 W/m 30,9 km/h (5 Bft)
20.02.2014 12:00 11,4 C 11,1 C 73 % 1008,3 hPa 0,0 l/m 0 min 0 min 0,0 UV-I 185 W/m 23,2 km/h (4 Bft)
20.02.2014 12:02 11,4 C 11,1 C 73 % 1008,3 hPa 0,0 l/m 0 min 0 min 0,0 UV-I 174 W/m 15,4 km/h (3 Bft)
20.02.2014 12:04 11,4 C 11,1 C 73 % 1008,3 hPa 0,0 l/m 0 min 0 min 0,0 UV-I 186 W/m 15,4 km/h (3 Bft)
20.02.2014 12:06 11,4 C 11,1 C 73 % 1008,3 hPa 0,0 l/m 0 min 0 min 0,0 UV-I 202 W/m 20,6 km/h (4 Bft)
20.02.2014 12:08 11,4 C 11,1 C 73 % 1008,2 hPa 0,0 l/m 0 min 0 min 0,0 UV-I 195 W/m 20,6 km/h (4 Bft)
20.02.2014 12:10 11,4 C 11,1 C 73 % 1008,2 hPa 0,0 l/m 0 min 0 min 0,0 UV-I 167 W/m 23,2 km/h (4 Bft)
20.02.2014 12:12 11,5 C 10,6 C 73 % 1008,2 hPa 0,0 l/m 0 min 2 min 0,0 UV-I 160 W/m 18,0 km/h (3 Bft)
20.02.2014 12:14 11,5 C 10,0 C 73 % 1008,2 hPa 0,0 l/m 0 min 2 min 0,0 UV-I 151 W/m 18,0 km/h (3 Bft)
20.02.2014 12:16 11,5 C 10,0 C 74 % 1008,2 hPa 0,0 l/m 0 min 0 min 0,0 UV-I 153 W/m 18,0 km/h (3 Bft)
20.02.2014 12:18 11,5 C 10,0 C 73 % 1008,2 hPa 0,0 l/m 0 min 0 min 0,0 UV-I 149 W/m 41,2 km/h (6 Bft)
20.02.2014 12:20 11,4 C 10,0 C 73 % 1008,2 hPa 0,0 l/m 0 min 0 min 0,0 UV-I 125 W/m 33,5 km/h (5 Bft)
20.02.2014 12:22 11,4 C 10,0 C 73 % 1008,1 hPa 0,0 l/m 0 min 0 min 0,0 UV-I 113 W/m 18,0 km/h (3 Bft)
20.02.2014 12:24 11,4 C 10,0 C 73 % 1008,1 hPa 0,0 l/m 0 min 0 min 0,0 UV-I 118 W/m 25,7 km/h (4 Bft)
20.02.2014 12:26 11,4 C 10,6 C 73 % 1008,1 hPa 0,0 l/m 0 min 0 min 0,0 UV-I 142 W/m 25,7 km/h (4 Bft)
20.02.2014 12:28 11,4 C 10,6 C 74 % 1008,0 hPa 0,0 l/m 0 min 0 min 0,0 UV-I 162 W/m 15,4 km/h (3 Bft)
20.02.2014 12:30 11,5 C 10,6 C 73 % 1008,0 hPa 0,0 l/m 0 min 0 min 0,0 UV-I 174 W/m 25,7 km/h (4 Bft)
20.02.2014 12:32 11,6 C 11,1 C 74 % 1008,0 hPa 0,0 l/m 0 min 0 min 0,0 UV-I 162 W/m 15,4 km/h (3 Bft)
20.02.2014 12:34 11,6 C 11,1 C 73 % 1008,0 hPa 0,0 l/m 0 min 0 min 0,0 UV-I 165 W/m 12,9 km/h (3 Bft)
20.02.2014 12:36 11,6 C 11,1 C 73 % 1008,0 hPa 0,0 l/m 0 min 0 min 0,0 UV-I 156 W/m 30,9 km/h (5 Bft)
20.02.2014 12:38 11,6 C 10,6 C 73 % 1007,9 hPa 0,0 l/m 0 min 0 min 0,0 UV-I 172 W/m 28,3 km/h (4 Bft)
20.02.2014 12:40 11,6 C 10,6 C 73 % 1007,9 hPa 0,0 l/m 0 min 0 min 0,0 UV-I 171 W/m 23,2 km/h (4 Bft)
20.02.2014 12:42 11,7 C 11,1 C 73 % 1007,8 hPa 0,0 l/m 0 min 0 min 0,0 UV-I 174 W/m 20,6 km/h (4 Bft)
20.02.2014 12:44 11,7 C 11,1 C 74 % 1007,8 hPa 0,0 l/m 0 min 0 min 0,0 UV-I 195 W/m 20,6 km/h (4 Bft)
20.02.2014 12:46 11,7 C 11,1 C 73 % 1007,8 hPa 0,0 l/m 0 min 0 min 0,0 UV-I 199 W/m 38,6 km/h (5 Bft)
20.02.2014 12:48 11,6 C 11,1 C 73 % 1007,6 hPa 0,0 l/m 0 min 0 min 0,0 UV-I 197 W/m 28,3 km/h (4 Bft)
20.02.2014 12:50 11,6 C 11,1 C 74 % 1007,6 hPa 0,0 l/m 0 min 2 min 0,0 UV-I 179 W/m 18,0 km/h (3 Bft)
20.02.2014 12:52 11,6 C 10,6 C 74 % 1007,6 hPa 0,0 l/m 0 min 0 min 0,0 UV-I 167 W/m 23,2 km/h (4 Bft)
20.02.2014 12:54 11,6 C 11,1 C 75 % 1007,6 hPa 0,0 l/m 0 min 0 min 0,0 UV-I 162 W/m 10,3 km/h (2 Bft)
20.02.2014 12:56 11,6 C 10,6 C 75 % 1007,5 hPa 0,0 l/m 0 min 0 min 0,0 UV-I 172 W/m 20,6 km/h (4 Bft)
20.02.2014 12:58 11,6 C 10,6 C 75 % 1007,4 hPa 0,0 l/m 0 min 0 min 0,0 UV-I 169 W/m 18,0 km/h (3 Bft)
20.02.2014 13:00 11,6 C 11,1 C 75 % 1007,3 hPa 0,0 l/m 0 min 0 min 0,0 UV-I 162 W/m 20,6 km/h (4 Bft)
20.02.2014 13:02 11,6 C 10,6 C 74 % 1007,3 hPa 0,0 l/m 0 min 0 min 0,0 UV-I 158 W/m 43,8 km/h (6 Bft)
20.02.2014 13:04 11,6 C 10,6 C 74 % 1007,3 hPa 0,0 l/m 0 min 0 min 0,0 UV-I 155 W/m 28,3 km/h (4 Bft)
20.02.2014 13:06 11,6 C 11,1 C 74 % 1007,3 hPa 0,0 l/m 0 min 0 min 0,0 UV-I 151 W/m 18,0 km/h (3 Bft)
20.02.2014 13:08 11,6 C 10,6 C 75 % 1007,3 hPa 0,0 l/m 0 min 0 min 0,0 UV-I 132 W/m 10,3 km/h (2 Bft)
20.02.2014 13:10 11,6 C 10,6 C 75 % 1007,2 hPa 0,0 l/m 0 min 0 min 0,0 UV-I 123 W/m 23,2 km/h (4 Bft)
20.02.2014 13:12 11,5 C 10,6 C 75 % 1007,2 hPa 0,0 l/m 0 min 0 min 0,0 UV-I 111 W/m 18,0 km/h (3 Bft)
20.02.2014 13:14 11,4 C 10,6 C 75 % 1007,2 hPa 0,0 l/m 0 min 0 min 0,0 UV-I 105 W/m 15,4 km/h (3 Bft)
20.02.2014 13:16 11,4 C 10,6 C 75 % 1007,1 hPa 0,0 l/m 0 min 0 min 0,0 UV-I 98 W/m 12,9 km/h (3 Bft)
20.02.2014 13:18 11,4 C 10,6 C 76 % 1007,1 hPa 0,0 l/m 0 min 0 min 0,0 UV-I 90 W/m 10,3 km/h (2 Bft)
20.02.2014 13:20 11,3 C 10,6 C 76 % 1007,1 hPa 0,0 l/m 0 min 0 min 0,0 UV-I 88 W/m 23,2 km/h (4 Bft)
20.02.2014 13:22 11,3 C 10,6 C 76 % 1007,0 hPa 0,0 l/m 0 min 0 min 0,0 UV-I 81 W/m 23,2 km/h (4 Bft)
20.02.2014 13:24 11,3 C 10,0 C 76 % 1006,9 hPa 0,0 l/m 0 min 0 min 0,0 UV-I 81 W/m 12,9 km/h (3 Bft)
20.02.2014 13:26 11,3 C 10,0 C 76 % 1006,9 hPa 0,0 l/m 0 min 0 min 0,0 UV-I 90 W/m 20,6 km/h (4 Bft)
20.02.2014 13:28 11,3 C 10,0 C 76 % 1006,9 hPa 0,0 l/m 0 min 0 min 0,0 UV-I 90 W/m 10,3 km/h (2 Bft)
20.02.2014 13:30 11,3 C 10,6 C 76 % 1006,8 hPa 0,0 l/m 0 min 0 min 0,0 UV-I 97 W/m 10,3 km/h (2 Bft)
20.02.2014 13:32 11,3 C 10,6 C 76 % 1006,9 hPa 0,0 l/m 0 min 0 min 0,0 UV-I 102 W/m 20,6 km/h (4 Bft)
20.02.2014 13:34 11,4 C 10,6 C 76 % 1006,9 hPa 0,0 l/m 0 min 0 min 0,0 UV-I 105 W/m 12,9 km/h (3 Bft)
20.02.2014 13:36 11,4 C 10,6 C 75 % 1006,9 hPa 0,0 l/m 0 min 0 min 0,0 UV-I 102 W/m 28,3 km/h (4 Bft)
20.02.2014 13:38 11,4 C 10,6 C 75 % 1006,8 hPa 0,0 l/m 0 min 0 min 0,0 UV-I 113 W/m 18,0 km/h (3 Bft)
20.02.2014 13:40 11,4 C 10,6 C 75 % 1006,8 hPa 0,0 l/m 0 min 0 min 0,0 UV-I 118 W/m 30,9 km/h (5 Bft)
20.02.2014 13:42 11,4 C 10,6 C 75 % 1006,8 hPa 0,0 l/m 0 min 0 min 0,0 UV-I 118 W/m 33,5 km/h (5 Bft)
20.02.2014 13:44 11,4 C 10,6 C 75 % 1006,8 hPa 0,0 l/m 0 min 0 min 0,0 UV-I 114 W/m 18,0 km/h (3 Bft)
20.02.2014 13:46 11,4 C 10,6 C 75 % 1006,7 hPa 0,0 l/m 0 min 0 min 0,0 UV-I 113 W/m 20,6 km/h (4 Bft)
20.02.2014 13:48 11,4 C 10,6 C 75 % 1006,8 hPa 0,0 l/m 0 min 0 min 0,0 UV-I 114 W/m 12,9 km/h (3 Bft)
20.02.2014 13:50 11,4 C 10,6 C 75 % 1006,7 hPa 0,0 l/m 0 min 0 min 0,0 UV-I 113 W/m 41,2 km/h (6 Bft)
20.02.2014 13:52 11,4 C 10,6 C 75 % 1006,7 hPa 0,0 l/m 0 min 0 min 0,0 UV-I 114 W/m 18,0 km/h (3 Bft)
20.02.2014 13:54 11,3 C 10,6 C 75 % 1006,7 hPa 0,0 l/m 0 min 2 min 0,0 UV-I 105 W/m 18,0 km/h (3 Bft)
20.02.2014 13:56 11,3 C 10,0 C 76 % 1006,7 hPa 0,0 l/m 0 min 2 min 0,0 UV-I 104 W/m 30,9 km/h (5 Bft)
20.02.2014 13:58 11,3 C 9,4 C 77 % 1006,7 hPa 0,0 l/m 0 min 2 min 0,0 UV-I 102 W/m 20,6 km/h (4 Bft)
20.02.2014 14:00 11,2 C 9,4 C 77 % 1006,7 hPa 0,0 l/m 0 min 2 min 0,0 UV-I 91 W/m 23,2 km/h (4 Bft)
20.02.2014 14:02 11,2 C 9,4 C 77 % 1006,7 hPa 0,0 l/m 0 min 2 min 0,0 UV-I 86 W/m 18,0 km/h (3 Bft)
20.02.2014 14:04 11,1 C 9,4 C 78 % 1006,7 hPa 0,0 l/m 0 min 0 min 0,0 UV-I 88 W/m 18,0 km/h (3 Bft)
20.02.2014 14:06 11,1 C 9,4 C 78 % 1006,7 hPa 0,0 l/m 0 min 2 min 0,0 UV-I 88 W/m 12,9 km/h (3 Bft)
20.02.2014 14:08 11,1 C 10,0 C 78 % 1006,7 hPa 0,0 l/m 0 min 0 min 0,0 UV-I 83 W/m 12,9 km/h (3 Bft)
20.02.2014 14:10 11,1 C 10,0 C 79 % 1006,6 hPa 0,0 l/m 0 min 0 min 0,0 UV-I 76 W/m 15,4 km/h (3 Bft)
20.02.2014 14:12 11,1 C 10,0 C 79 % 1006,6 hPa 0,0 l/m 0 min 0 min 0,0 UV-I 76 W/m 5,1 km/h (1 Bft)
20.02.2014 14:14 11,1 C 10,0 C 78 % 1006,6 hPa 0,0 l/m 0 min 0 min 0,0 UV-I 86 W/m 12,9 km/h (3 Bft)
20.02.2014 14:16 11,1 C 10,0 C 78 % 1006,7 hPa 0,0 l/m 0 min 0 min 0,0 UV-I 91 W/m 12,9 km/h (3 Bft)
20.02.2014 14:18 11,1 C 10,0 C 78 % 1006,6 hPa 0,0 l/m 0 min 0 min 0,0 UV-I 88 W/m 15,4 km/h (3 Bft)
20.02.2014 14:20 11,2 C 10,0 C 77 % 1006,7 hPa 0,0 l/m 0 min 2 min 0,0 UV-I 77 W/m 18,0 km/h (3 Bft)
20.02.2014 14:22 11,2 C 10,0 C 78 % 1006,6 hPa 0,0 l/m 0 min 2 min 0,0 UV-I 76 W/m 10,3 km/h (2 Bft)
20.02.2014 14:24 11,2 C 10,0 C 78 % 1006,6 hPa 0,0 l/m 0 min 0 min 0,0 UV-I 77 W/m 10,3 km/h (2 Bft)
20.02.2014 14:26 11,2 C 9,4 C 79 % 1006,6 hPa 0,0 l/m 0 min 2 min 0,0 UV-I 76 W/m 20,6 km/h (4 Bft)
20.02.2014 14:28 11,1 C 9,4 C 79 % 1006,6 hPa 0,0 l/m 0 min 2 min 0,0 UV-I 67 W/m 7,7 km/h (2 Bft)
20.02.2014 14:30 11,1 C 9,4 C 79 % 1006,6 hPa 0,0 l/m 0 min 2 min 0,0 UV-I 65 W/m 12,9 km/h (3 Bft)
20.02.2014 14:32 11,1 C 8,9 C 79 % 1006,5 hPa 0,0 l/m 0 min 2 min 0,0 UV-I 67 W/m 20,6 km/h (4 Bft)
20.02.2014 14:34 11,0 C 8,9 C 79 % 1006,5 hPa 0,0 l/m 0 min 0 min 0,0 UV-I 56 W/m 18,0 km/h (3 Bft)
20.02.2014 14:36 10,9 C 8,9 C 79 % 1006,5 hPa 0,0 l/m 0 min 0 min 0,0 UV-I 53 W/m 10,3 km/h (2 Bft)
20.02.2014 14:38 10,9 C 9,4 C 80 % 1006,5 hPa 0,0 l/m 0 min 0 min 0,0 UV-I 51 W/m 18,0 km/h (3 Bft)
20.02.2014 14:40 10,9 C 9,4 C 80 % 1006,4 hPa 0,0 l/m 0 min 0 min 0,0 UV-I 53 W/m 15,4 km/h (3 Bft)
20.02.2014 14:42 10,9 C 9,4 C 80 % 1006,5 hPa 0,0 l/m 0 min 0 min 0,0 UV-I 49 W/m 12,9 km/h (3 Bft)
20.02.2014 14:44 10,9 C 9,4 C 80 % 1006,5 hPa 0,0 l/m 0 min 2 min 0,0 UV-I 49 W/m 18,0 km/h (3 Bft)
20.02.2014 14:46 10,9 C 9,4 C 80 % 1006,4 hPa 0,0 l/m 0 min 0 min 0,0 UV-I 46 W/m 23,2 km/h (4 Bft)
20.02.2014 14:48 10,8 C 9,4 C 81 % 1006,5 hPa 0,0 l/m 0 min 0 min 0,0 UV-I 42 W/m 7,7 km/h (2 Bft)
20.02.2014 14:50 10,8 C 9,4 C 81 % 1006,4 hPa 0,0 l/m 0 min 0 min 0,0 UV-I 42 W/m 5,1 km/h (1 Bft)
20.02.2014 14:52 10,8 C 9,4 C 81 % 1006,4 hPa 0,0 l/m 0 min 0 min 0,0 UV-I 44 W/m 2,6 km/h (1 Bft)
20.02.2014 14:54 10,8 C 9,4 C 82 % 1006,4 hPa 0,0 l/m 0 min 0 min 0,0 UV-I 46 W/m 12,9 km/h (3 Bft)
20.02.2014 14:56 10,8 C 9,4 C 82 % 1006,4 hPa 0,0 l/m 0 min 0 min 0,0 UV-I 46 W/m 12,9 km/h (3 Bft)
20.02.2014 14:58 10,7 C 9,4 C 82 % 1006,4 hPa 0,0 l/m 0 min 0 min 0,0 UV-I 47 W/m 5,1 km/h (1 Bft)
20.02.2014 15:00 10,7 C 9,4 C 82 % 1006,4 hPa 0,0 l/m 0 min 0 min 0,0 UV-I 49 W/m 23,2 km/h (4 Bft)
20.02.2014 15:02 10,7 C 9,4 C 82 % 1006,4 hPa 0,0 l/m 0 min 0 min 0,0 UV-I 47 W/m 5,1 km/h (1 Bft)
20.02.2014 15:04 10,7 C 9,4 C 82 % 1006,4 hPa 0,0 l/m 0 min 0 min 0,0 UV-I 46 W/m 15,4 km/h (3 Bft)
20.02.2014 15:06 10,7 C 9,4 C 82 % 1006,4 hPa 0,0 l/m 0 min 0 min 0,0 UV-I 44 W/m 15,4 km/h (3 Bft)
20.02.2014 15:08 10,7 C 9,4 C 82 % 1006,3 hPa 0,0 l/m 0 min 0 min 0,0 UV-I 44 W/m 10,3 km/h (2 Bft)
20.02.2014 15:10 10,7 C 9,4 C 82 % 1006,4 hPa 0,0 l/m 0 min 0 min 0,0 UV-I 44 W/m 5,1 km/h (1 Bft)
20.02.2014 15:12 10,7 C 9,4 C 83 % 1006,3 hPa 0,0 l/m 0 min 0 min 0,0 UV-I 40 W/m 12,9 km/h (3 Bft)
20.02.2014 15:14 10,6 C 9,4 C 83 % 1006,3 hPa 0,0 l/m 0 min 0 min 0,0 UV-I 39 W/m 10,3 km/h (2 Bft)
20.02.2014 15:16 10,6 C 9,4 C 83 % 1006,3 hPa 0,0 l/m 0 min 0 min 0,0 UV-I 37 W/m 7,7 km/h (2 Bft)
20.02.2014 15:18 10,6 C 9,4 C 83 % 1006,3 hPa 0,0 l/m 0 min 0 min 0,0 UV-I 37 W/m 15,4 km/h (3 Bft)
20.02.2014 15:20 10,5 C 8,9 C 83 % 1006,3 hPa 0,0 l/m 0 min 0 min 0,0 UV-I 37 W/m 15,4 km/h (3 Bft)
20.02.2014 15:22 10,5 C 8,9 C 83 % 1006,2 hPa 0,0 l/m 0 min 2 min 0,0 UV-I 32 W/m 10,3 km/h (2 Bft)
20.02.2014 15:24 10,5 C 8,9 C 84 % 1006,2 hPa 0,0 l/m 0 min 0 min 0,0 UV-I 30 W/m 25,7 km/h (4 Bft)
20.02.2014 15:26 10,5 C 8,9 C 83 % 1006,2 hPa 0,0 l/m 0 min 0 min 0,0 UV-I 30 W/m 15,4 km/h (3 Bft)
20.02.2014 15:28 10,5 C 8,9 C 83 % 1006,1 hPa 0,0 l/m 0 min 0 min 0,0 UV-I 30 W/m 10,3 km/h (2 Bft)
20.02.2014 15:30 10,5 C 8,9 C 83 % 1006,1 hPa 0,0 l/m 0 min 0 min 0,0 UV-I 28 W/m 12,9 km/h (3 Bft)
20.02.2014 15:32 10,5 C 8,9 C 83 % 1006,1 hPa 0,0 l/m 0 min 0 min 0,0 UV-I 28 W/m 12,9 km/h (3 Bft)
20.02.2014 15:34 10,5 C 8,9 C 83 % 1006,1 hPa 0,0 l/m 0 min 0 min 0,0 UV-I 30 W/m 12,9 km/h (3 Bft)
20.02.2014 15:36 10,5 C 9,4 C 83 % 1006,1 hPa 0,0 l/m 0 min 0 min 0,0 UV-I 30 W/m 10,3 km/h (2 Bft)
20.02.2014 15:38 10,5 C 9,4 C 83 % 1006,1 hPa 0,0 l/m 0 min 0 min 0,0 UV-I 30 W/m 5,1 km/h (1 Bft)
20.02.2014 15:40 10,5 C 8,9 C 83 % 1006,1 hPa 0,0 l/m 0 min 2 min 0,0 UV-I 30 W/m 7,7 km/h (2 Bft)
20.02.2014 15:42 10,5 C 8,9 C 84 % 1006,1 hPa 0,0 l/m 0 min 2 min 0,0 UV-I 28 W/m 15,4 km/h (3 Bft)
20.02.2014 15:44 10,5 C 8,9 C 84 % 1006,1 hPa 0,0 l/m 0 min 0 min 0,0 UV-I 26 W/m 10,3 km/h (2 Bft)
20.02.2014 15:46 10,5 C 8,9 C 84 % 1006,1 hPa 0,0 l/m 0 min 2 min 0,0 UV-I 25 W/m 7,7 km/h (2 Bft)
20.02.2014 15:48 10,4 C 8,9 C 85 % 1006,1 hPa 0,0 l/m 0 min 0 min 0,0 UV-I 23 W/m 12,9 km/h (3 Bft)
20.02.2014 15:50 10,4 C 8,9 C 85 % 1006,1 hPa 0,0 l/m 0 min 0 min 0,0 UV-I 21 W/m 10,3 km/h (2 Bft)
20.02.2014 15:52 10,4 C 8,9 C 85 % 1006,1 hPa 0,0 l/m 0 min 0 min 0,0 UV-I 19 W/m 23,2 km/h (4 Bft)
20.02.2014 15:54 10,4 C 8,9 C 85 % 1006,0 hPa 0,0 l/m 0 min 0 min 0,0 UV-I 19 W/m 15,4 km/h (3 Bft)
20.02.2014 15:56 10,4 C 8,9 C 84 % 1005,9 hPa 0,0 l/m 0 min 2 min 0,0 UV-I 21 W/m 15,4 km/h (3 Bft)
20.02.2014 15:58 10,3 C 8,3 C 85 % 1006,0 hPa 0,0 l/m 0 min 0 min 0,0 UV-I 23 W/m 15,4 km/h (3 Bft)
20.02.2014 16:00 10,3 C 8,9 C 85 % 1005,9 hPa 0,0 l/m 0 min 0 min 0,0 UV-I 25 W/m 10,3 km/h (2 Bft)
20.02.2014 16:02 10,3 C 8,9 C 85 % 1005,9 hPa 0,0 l/m 0 min 0 min 0,0 UV-I 25 W/m 12,9 km/h (3 Bft)
20.02.2014 16:04 10,3 C 8,9 C 85 % 1005,9 hPa 0,0 l/m 0 min 0 min 0,0 UV-I 25 W/m 18,0 km/h (3 Bft)
20.02.2014 16:06 10,3 C 8,9 C 85 % 1005,9 hPa 0,0 l/m 0 min 0 min 0,0 UV-I 26 W/m 12,9 km/h (3 Bft)
20.02.2014 16:08 10,3 C 8,9 C 85 % 1005,9 hPa 0,0 l/m 0 min 0 min 0,0 UV-I 28 W/m 15,4 km/h (3 Bft)
20.02.2014 16:10 10,3 C 8,9 C 86 % 1005,8 hPa 0,0 l/m 0 min 0 min 0,0 UV-I 30 W/m 15,4 km/h (3 Bft)
20.02.2014 16:12 10,2 C 8,9 C 86 % 1005,7 hPa 0,0 l/m 0 min 0 min 0,0 UV-I 32 W/m 10,3 km/h (2 Bft)
20.02.2014 16:14 10,2 C 8,9 C 86 % 1005,6 hPa 0,0 l/m 0 min 0 min 0,0 UV-I 32 W/m 15,4 km/h (3 Bft)
20.02.2014 16:16 10,2 C 8,9 C 86 % 1005,6 hPa 0,0 l/m 0 min 0 min 0,0 UV-I 35 W/m 18,0 km/h (3 Bft)
20.02.2014 16:18 10,2 C 8,9 C 86 % 1005,6 hPa 0,0 l/m 0 min 0 min 0,0 UV-I 35 W/m 5,1 km/h (1 Bft)
20.02.2014 16:20 10,2 C 8,9 C 86 % 1005,6 hPa 0,0 l/m 0 min 0 min 0,0 UV-I 37 W/m 12,9 km/h (3 Bft)
20.02.2014 16:22 10,2 C 8,9 C 86 % 1005,6 hPa 0,0 l/m 0 min 0 min 0,0 UV-I 33 W/m 12,9 km/h (3 Bft)
20.02.2014 16:24 10,2 C 8,9 C 86 % 1005,6 hPa 0,0 l/m 0 min 2 min 0,0 UV-I 30 W/m 12,9 km/h (3 Bft)
20.02.2014 16:26 10,2 C 8,9 C 86 % 1005,6 hPa 0,0 l/m 0 min 2 min 0,0 UV-I 26 W/m 2,6 km/h (1 Bft)
20.02.2014 16:28 10,2 C 8,9 C 86 % 1005,6 hPa 0,0 l/m 0 min 2 min 0,0 UV-I 25 W/m 10,3 km/h (2 Bft)
20.02.2014 16:30 10,2 C 8,3 C 86 % 1005,6 hPa 0,0 l/m 0 min 2 min 0,0 UV-I 25 W/m 7,7 km/h (2 Bft)
20.02.2014 16:32 10,2 C 8,3 C 87 % 1005,6 hPa 0,0 l/m 0 min 2 min 0,0 UV-I 23 W/m 12,9 km/h (3 Bft)
20.02.2014 16:34 10,1 C 7,8 C 87 % 1005,6 hPa 0,0 l/m 0 min 2 min 0,0 UV-I 23 W/m 15,4 km/h (3 Bft)
20.02.2014 16:36 10,1 C 7,8 C 88 % 1005,6 hPa 0,0 l/m 0 min 2 min 0,0 UV-I 23 W/m 18,0 km/h (3 Bft)
20.02.2014 16:38 9,9 C 7,8 C 88 % 1005,6 hPa 0,0 l/m 0 min 2 min 0,0 UV-I 21 W/m 20,6 km/h (4 Bft)
20.02.2014 16:40 9,9 C 7,8 C 88 % 1005,5 hPa 0,0 l/m 0 min 2 min 0,0 UV-I 19 W/m 12,9 km/h (3 Bft)
20.02.2014 16:42 9,8 C 7,8 C 89 % 1005,5 hPa 0,0 l/m 0 min 0 min 0,0 UV-I 19 W/m 15,4 km/h (3 Bft)
20.02.2014 16:44 9,7 C 7,8 C 89 % 1005,5 hPa 0,0 l/m 0 min 2 min 0,0 UV-I 18 W/m 18,0 km/h (3 Bft)
20.02.2014 16:46 9,7 C 7,8 C 90 % 1005,5 hPa 0,0 l/m 0 min 2 min 0,0 UV-I 18 W/m 15,4 km/h (3 Bft)
20.02.2014 16:48 9,6 C 7,8 C 90 % 1005,6 hPa 0,0 l/m 0 min 0 min 0,0 UV-I 18 W/m 15,4 km/h (3 Bft)
20.02.2014 16:50 9,6 C 7,8 C 90 % 1005,5 hPa 0,0 l/m 0 min 2 min 0,0 UV-I 16 W/m 20,6 km/h (4 Bft)
20.02.2014 16:52 9,5 C 7,8 C 90 % 1005,5 hPa 0,0 l/m 0 min 2 min 0,0 UV-I 16 W/m 10,3 km/h (2 Bft)
20.02.2014 16:54 9,5 C 7,8 C 91 % 1005,5 hPa 0,0 l/m 0 min 2 min 0,0 UV-I 14 W/m 20,6 km/h (4 Bft)
20.02.2014 16:56 9,5 C 7,8 C 91 % 1005,5 hPa 0,0 l/m 0 min 2 min 0,0 UV-I 14 W/m 15,4 km/h (3 Bft)
20.02.2014 16:58 9,4 C 7,8 C 91 % 1005,5 hPa 0,0 l/m 0 min 2 min 0,0 UV-I 14 W/m 15,4 km/h (3 Bft)
20.02.2014 17:00 9,4 C 7,8 C 91 % 1005,4 hPa 0,0 l/m 0 min 2 min 0,0 UV-I 14 W/m 12,9 km/h (3 Bft)
20.02.2014 17:02 9,4 C 7,8 C 91 % 1005,3 hPa 0,0 l/m 0 min 2 min 0,0 UV-I 12 W/m 12,9 km/h (3 Bft)
20.02.2014 17:04 9,4 C 7,2 C 91 % 1005,2 hPa 0,2 l/m 0 min 2 min 0,0 UV-I 11 W/m 15,4 km/h (3 Bft)
20.02.2014 17:06 9,4 C 7,2 C 91 % 1005,2 hPa 0,0 l/m 0 min 2 min 0,0 UV-I 11 W/m 20,6 km/h (4 Bft)
20.02.2014 17:08 9,3 C 7,2 C 91 % 1005,2 hPa 0,0 l/m 0 min 2 min 0,0 UV-I 9 W/m 15,4 km/h (3 Bft)
20.02.2014 17:10 9,3 C 7,2 C 91 % 1005,2 hPa 0,0 l/m 0 min 2 min 0,0 UV-I 9 W/m 12,9 km/h (3 Bft)
20.02.2014 17:12 9,3 C 7,2 C 91 % 1005,3 hPa 0,0 l/m 0 min 2 min 0,0 UV-I 7 W/m 20,6 km/h (4 Bft)
20.02.2014 17:14 9,3 C 7,2 C 92 % 1005,4 hPa 0,0 l/m 0 min 2 min 0,0 UV-I 7 W/m 15,4 km/h (3 Bft)
20.02.2014 17:16 9,3 C 7,2 C 92 % 1005,4 hPa 0,0 l/m 0 min 2 min 0,0 UV-I 7 W/m 15,4 km/h (3 Bft)
20.02.2014 17:18 9,2 C 7,2 C 92 % 1005,5 hPa 0,0 l/m 0 min 2 min 0,0 UV-I 7 W/m 12,9 km/h (3 Bft)
20.02.2014 17:20 9,2 C 7,2 C 92 % 1005,3 hPa 0,0 l/m 0 min 2 min 0,0 UV-I 7 W/m 10,3 km/h (2 Bft)
20.02.2014 17:22 9,2 C 7,2 C 92 % 1005,4 hPa 0,2 l/m 0 min 2 min 0,0 UV-I 5 W/m 15,4 km/h (3 Bft)
20.02.2014 17:24 9,2 C 7,2 C 92 % 1005,5 hPa 0,0 l/m 0 min 2 min 0,0 UV-I 5 W/m 7,7 km/h (2 Bft)
20.02.2014 17:26 9,2 C 7,2 C 92 % 1005,5 hPa 0,0 l/m 0 min 2 min 0,0 UV-I 5 W/m 7,7 km/h (2 Bft)
20.02.2014 17:28 9,2 C 7,2 C 92 % 1005,4 hPa 0,2 l/m 0 min 2 min 0,0 UV-I 5 W/m 2,6 km/h (1 Bft)
20.02.2014 17:30 9,2 C 7,2 C 93 % 1005,4 hPa 0,0 l/m 0 min 2 min 0,0 UV-I 0 W/m 7,7 km/h (2 Bft)
20.02.2014 17:32 9,1 C 7,2 C 92 % 1005,4 hPa 0,0 l/m 0 min 2 min 0,0 UV-I 0 W/m 7,7 km/h (2 Bft)
20.02.2014 17:34 9,1 C 7,2 C 93 % 1005,4 hPa 0,2 l/m 0 min 2 min 0,0 UV-I 0 W/m 5,1 km/h (1 Bft)
20.02.2014 17:36 9,1 C 7,2 C 93 % 1005,3 hPa 0,0 l/m 0 min 2 min 0,0 UV-I 0 W/m 10,3 km/h (2 Bft)
20.02.2014 17:38 9,0 C 7,2 C 93 % 1005,4 hPa 0,2 l/m 0 min 2 min 0,0 UV-I 0 W/m 7,7 km/h (2 Bft)
20.02.2014 17:40 9,0 C 7,2 C 93 % 1005,4 hPa 0,0 l/m 0 min 2 min 0,0 UV-I 0 W/m 0,0 km/h (0 Bft)
20.02.2014 17:42 9,0 C 7,2 C 93 % 1005,3 hPa 0,0 l/m 0 min 2 min 0,0 UV-I 0 W/m 0,0 km/h (0 Bft)
20.02.2014 17:44 8,9 C 7,2 C 93 % 1005,4 hPa 0,2 l/m 0 min 2 min 0,0 UV-I 0 W/m 12,9 km/h (3 Bft)
20.02.2014 17:46 8,9 C 7,2 C 93 % 1005,4 hPa 0,0 l/m 0 min 2 min 0,0 UV-I 0 W/m 7,7 km/h (2 Bft)
20.02.2014 17:48 8,9 C 7,2 C 94 % 1005,4 hPa 0,0 l/m 0 min 2 min 0,0 UV-I 0 W/m 5,1 km/h (1 Bft)
20.02.2014 17:50 8,9 C 7,2 C 94 % 1005,4 hPa 0,0 l/m 0 min 2 min 0,0 UV-I 0 W/m 10,3 km/h (2 Bft)
20.02.2014 17:52 8,9 C 7,2 C 94 % 1005,3 hPa 0,2 l/m 0 min 2 min 0,0 UV-I 0 W/m 12,9 km/h (3 Bft)
20.02.2014 17:54 8,8 C 7,2 C 94 % 1005,2 hPa 0,0 l/m 0 min 2 min 0,0 UV-I 0 W/m 10,3 km/h (2 Bft)
20.02.2014 17:56 8,8 C 7,2 C 94 % 1005,2 hPa 0,0 l/m 0 min 2 min 0,0 UV-I 0 W/m 15,4 km/h (3 Bft)
20.02.2014 17:58 8,8 C 7,2 C 94 % 1005,2 hPa 0,0 l/m 0 min 2 min 0,0 UV-I 0 W/m 12,9 km/h (3 Bft)
20.02.2014 18:00 8,8 C 7,2 C 94 % 1005,1 hPa 0,0 l/m 0 min 2 min 0,0 UV-I 0 W/m 10,3 km/h (2 Bft)
20.02.2014 18:02 8,8 C 7,2 C 94 % 1005,1 hPa 0,0 l/m 0 min 2 min 0,0 UV-I 0 W/m 18,0 km/h (3 Bft)
20.02.2014 18:04 8,8 C 7,2 C 94 % 1005,1 hPa 0,0 l/m 0 min 2 min 0,0 UV-I 0 W/m 20,6 km/h (4 Bft)
20.02.2014 18:06 8,7 C 7,2 C 94 % 1005,1 hPa 0,0 l/m 0 min 2 min 0,0 UV-I 0 W/m 15,4 km/h (3 Bft)
20.02.2014 18:08 8,7 C 7,2 C 94 % 1005,1 hPa 0,0 l/m 0 min 2 min 0,0 UV-I 0 W/m 12,9 km/h (3 Bft)
20.02.2014 18:10 8,7 C 7,2 C 95 % 1005,1 hPa 0,0 l/m 0 min 2 min 0,0 UV-I 0 W/m 7,7 km/h (2 Bft)
20.02.2014 18:12 8,7 C 7,2 C 95 % 1005,1 hPa 0,0 l/m 0 min 2 min 0,0 UV-I 0 W/m 18,0 km/h (3 Bft)
20.02.2014 18:14 8,7 C 7,2 C 95 % 1005,1 hPa 0,0 l/m 0 min 0 min 0,0 UV-I 0 W/m 5,1 km/h (1 Bft)
20.02.2014 18:16 8,7 C 7,2 C 95 % 1005,0 hPa 0,0 l/m 0 min 0 min 0,0 UV-I 0 W/m 12,9 km/h (3 Bft)
20.02.2014 18:18 8,7 C 7,2 C 95 % 1005,0 hPa 0,0 l/m 0 min 0 min 0,0 UV-I 0 W/m 10,3 km/h (2 Bft)
20.02.2014 18:20 8,7 C 7,2 C 95 % 1005,0 hPa 0,0 l/m 0 min 0 min 0,0 UV-I 0 W/m 15,4 km/h (3 Bft)
20.02.2014 18:22 8,7 C 7,2 C 95 % 1005,0 hPa 0,0 l/m 0 min 0 min 0,0 UV-I 0 W/m 10,3 km/h (2 Bft)
20.02.2014 18:24 8,7 C 7,2 C 95 % 1004,9 hPa 0,0 l/m 0 min 0 min 0,0 UV-I 0 W/m 12,9 km/h (3 Bft)
20.02.2014 18:26 8,7 C 7,2 C 95 % 1005,0 hPa 0,0 l/m 0 min 0 min 0,0 UV-I 0 W/m 18,0 km/h (3 Bft)
20.02.2014 18:28 8,7 C 7,2 C 95 % 1004,9 hPa 0,0 l/m 0 min 0 min 0,0 UV-I 0 W/m 10,3 km/h (2 Bft)
20.02.2014 18:30 8,7 C 7,2 C 95 % 1004,9 hPa 0,0 l/m 0 min 0 min 0,0 UV-I 0 W/m 10,3 km/h (2 Bft)
20.02.2014 18:32 8,7 C 7,2 C 95 % 1004,9 hPa 0,0 l/m 0 min 0 min 0,0 UV-I 0 W/m 12,9 km/h (3 Bft)
20.02.2014 18:34 8,7 C 7,2 C 95 % 1004,9 hPa 0,0 l/m 0 min 0 min 0,0 UV-I 0 W/m 10,3 km/h (2 Bft)
20.02.2014 18:36 8,7 C 7,2 C 95 % 1004,8 hPa 0,0 l/m 0 min 0 min 0,0 UV-I 0 W/m 15,4 km/h (3 Bft)
20.02.2014 18:38 8,7 C 7,2 C 95 % 1004,8 hPa 0,0 l/m 0 min 0 min 0,0 UV-I 0 W/m 10,3 km/h (2 Bft)
20.02.2014 18:40 8,7 C 7,2 C 95 % 1004,8 hPa 0,0 l/m 0 min 0 min 0,0 UV-I 0 W/m 12,9 km/h (3 Bft)
20.02.2014 18:42 8,7 C 7,2 C 95 % 1004,8 hPa 0,0 l/m 0 min 0 min 0,0 UV-I 0 W/m 7,7 km/h (2 Bft)
20.02.2014 18:44 8,7 C 7,2 C 95 % 1004,8 hPa 0,0 l/m 0 min 0 min 0,0 UV-I 0 W/m 10,3 km/h (2 Bft)
20.02.2014 18:46 8,7 C 7,2 C 95 % 1004,8 hPa 0,0 l/m 0 min 2 min 0,0 UV-I 0 W/m 15,4 km/h (3 Bft)
20.02.2014 18:48 8,6 C 7,2 C 95 % 1004,8 hPa 0,2 l/m 0 min 2 min 0,0 UV-I 0 W/m 12,9 km/h (3 Bft)
20.02.2014 18:50 8,7 C 7,2 C 95 % 1004,7 hPa 0,0 l/m 0 min 2 min 0,0 UV-I 0 W/m 15,4 km/h (3 Bft)
20.02.2014 18:52 8,7 C 7,2 C 95 % 1004,7 hPa 0,0 l/m 0 min 0 min 0,0 UV-I 0 W/m 15,4 km/h (3 Bft)
20.02.2014 18:54 8,7 C 7,2 C 95 % 1004,7 hPa 0,0 l/m 0 min 0 min 0,0 UV-I 0 W/m 15,4 km/h (3 Bft)
20.02.2014 18:56 8,7 C 7,2 C 95 % 1004,7 hPa 0,0 l/m 0 min 0 min 0,0 UV-I 0 W/m 18,0 km/h (3 Bft)
20.02.2014 18:58 8,7 C 7,2 C 95 % 1004,7 hPa 0,0 l/m 0 min 0 min 0,0 UV-I 0 W/m 10,3 km/h (2 Bft)
20.02.2014 19:00 8,7 C 7,2 C 95 % 1004,7 hPa 0,0 l/m 0 min 0 min 0,0 UV-I 0 W/m 15,4 km/h (3 Bft)
20.02.2014 19:02 8,7 C 7,2 C 95 % 1004,7 hPa 0,0 l/m 0 min 0 min 0,0 UV-I 0 W/m 15,4 km/h (3 Bft)
20.02.2014 19:06 8,7 C 7,2 C 95 % 1004,7 hPa 0,0 l/m 0 min 0 min 0,0 UV-I 0 W/m 18,0 km/h (3 Bft)
20.02.2014 19:08 8,7 C 7,2 C 95 % 1004,6 hPa 0,0 l/m 0 min 0 min 0,0 UV-I 0 W/m 12,9 km/h (3 Bft)
20.02.2014 19:10 8,7 C 7,2 C 95 % 1004,7 hPa 0,0 l/m 0 min 0 min 0,0 UV-I 0 W/m 12,9 km/h (3 Bft)
20.02.2014 19:12 8,7 C 7,2 C 95 % 1004,6 hPa 0,0 l/m 0 min 0 min 0,0 UV-I 0 W/m 10,3 km/h (2 Bft)
20.02.2014 19:14 8,7 C 7,2 C 95 % 1004,6 hPa 0,0 l/m 0 min 0 min 0,0 UV-I 0 W/m 12,9 km/h (3 Bft)
20.02.2014 19:16 8,7 C 7,2 C 95 % 1004,6 hPa 0,0 l/m 0 min 0 min 0,0 UV-I 0 W/m 15,4 km/h (3 Bft)
20.02.2014 19:18 8,8 C 7,2 C 95 % 1004,6 hPa 0,0 l/m 0 min 0 min 0,0 UV-I 0 W/m 15,4 km/h (3 Bft)
20.02.2014 19:20 8,8 C 7,2 C 95 % 1004,6 hPa 0,0 l/m 0 min 0 min 0,0 UV-I 0 W/m 15,4 km/h (3 Bft)
20.02.2014 19:22 8,8 C 7,2 C 95 % 1004,6 hPa 0,0 l/m 0 min 0 min 0,0 UV-I 0 W/m 12,9 km/h (3 Bft)
20.02.2014 19:24 8,8 C 7,2 C 95 % 1004,6 hPa 0,0 l/m 0 min 0 min 0,0 UV-I 0 W/m 5,1 km/h (1 Bft)
20.02.2014 19:26 8,8 C 7,2 C 95 % 1004,6 hPa 0,0 l/m 0 min 0 min 0,0 UV-I 0 W/m 10,3 km/h (2 Bft)
20.02.2014 19:28 8,8 C 7,2 C 95 % 1004,5 hPa 0,0 l/m 0 min 0 min 0,0 UV-I 0 W/m 10,3 km/h (2 Bft)
20.02.2014 19:30 8,8 C 7,2 C 95 % 1004,6 hPa 0,0 l/m 0 min 0 min 0,0 UV-I 0 W/m 7,7 km/h (2 Bft)
20.02.2014 19:32 8,8 C 7,2 C 94 % 1004,6 hPa 0,0 l/m 0 min 0 min 0,0 UV-I 0 W/m 10,3 km/h (2 Bft)
20.02.2014 19:34 8,8 C 7,2 C 94 % 1004,6 hPa 0,0 l/m 0 min 0 min 0,0 UV-I 0 W/m 10,3 km/h (2 Bft)
20.02.2014 19:36 8,8 C 7,2 C 94 % 1004,5 hPa 0,0 l/m 0 min 2 min 0,0 UV-I 0 W/m 10,3 km/h (2 Bft)
20.02.2014 19:38 8,8 C 7,2 C 94 % 1004,6 hPa 0,0 l/m 0 min 0 min 0,0 UV-I 0 W/m 10,3 km/h (2 Bft)
20.02.2014 19:40 8,8 C 7,2 C 94 % 1004,5 hPa 0,0 l/m 0 min 0 min 0,0 UV-I 0 W/m 15,4 km/h (3 Bft)
20.02.2014 19:42 8,8 C 7,2 C 94 % 1004,5 hPa 0,0 l/m 0 min 0 min 0,0 UV-I 0 W/m 15,4 km/h (3 Bft)
20.02.2014 19:44 8,8 C 7,2 C 94 % 1004,5 hPa 0,0 l/m 0 min 0 min 0,0 UV-I 0 W/m 12,9 km/h (3 Bft)
20.02.2014 19:46 8,8 C 7,2 C 94 % 1004,5 hPa 0,0 l/m 0 min 0 min 0,0 UV-I 0 W/m 10,3 km/h (2 Bft)
20.02.2014 19:48 8,8 C 7,2 C 94 % 1004,5 hPa 0,0 l/m 0 min 0 min 0,0 UV-I 0 W/m 7,7 km/h (2 Bft)
20.02.2014 19:50 8,8 C 7,2 C 94 % 1004,5 hPa 0,0 l/m 0 min 0 min 0,0 UV-I 0 W/m 12,9 km/h (3 Bft)
20.02.2014 19:52 8,8 C 7,2 C 94 % 1004,5 hPa 0,0 l/m 0 min 0 min 0,0 UV-I 0 W/m 12,9 km/h (3 Bft)
20.02.2014 19:54 8,8 C 7,2 C 94 % 1004,4 hPa 0,0 l/m 0 min 0 min 0,0 UV-I 0 W/m 7,7 km/h (2 Bft)
20.02.2014 19:56 8,8 C 7,2 C 94 % 1004,4 hPa 0,0 l/m 0 min 0 min 0,0 UV-I 0 W/m 12,9 km/h (3 Bft)
20.02.2014 19:58 8,8 C 7,2 C 94 % 1004,3 hPa 0,0 l/m 0 min 0 min 0,0 UV-I 0 W/m 12,9 km/h (3 Bft)
20.02.2014 20:00 8,8 C 7,2 C 94 % 1004,3 hPa 0,0 l/m 0 min 0 min 0,0 UV-I 0 W/m 10,3 km/h (2 Bft)
20.02.2014 20:02 8,8 C 7,2 C 94 % 1004,3 hPa 0,0 l/m 0 min 0 min 0,0 UV-I 0 W/m 10,3 km/h (2 Bft)
20.02.2014 20:04 8,8 C 7,2 C 94 % 1004,3 hPa 0,0 l/m 0 min 0 min 0,0 UV-I 0 W/m 15,4 km/h (3 Bft)
20.02.2014 20:06 8,8 C 7,2 C 94 % 1004,3 hPa 0,0 l/m 0 min 0 min 0,0 UV-I 0 W/m 15,4 km/h (3 Bft)
20.02.2014 20:08 8,8 C 7,2 C 94 % 1004,2 hPa 0,0 l/m 0 min 0 min 0,0 UV-I 0 W/m 10,3 km/h (2 Bft)
20.02.2014 20:10 8,8 C 7,2 C 94 % 1004,1 hPa 0,0 l/m 0 min 0 min 0,0 UV-I 0 W/m 7,7 km/h (2 Bft)
20.02.2014 20:12 8,8 C 7,2 C 94 % 1004,1 hPa 0,0 l/m 0 min 0 min 0,0 UV-I 0 W/m 10,3 km/h (2 Bft)
20.02.2014 20:14 8,8 C 6,7 C 94 % 1004,1 hPa 0,0 l/m 0 min 0 min 0,0 UV-I 0 W/m 12,9 km/h (3 Bft)
20.02.2014 20:16 8,8 C 6,7 C 94 % 1004,1 hPa 0,0 l/m 0 min 0 min 0,0 UV-I 0 W/m 12,9 km/h (3 Bft)
20.02.2014 20:18 8,9 C 6,7 C 94 % 1004,1 hPa 0,0 l/m 0 min 0 min 0,0 UV-I 0 W/m 10,3 km/h (2 Bft)
20.02.2014 20:20 8,9 C 6,7 C 94 % 1004,0 hPa 0,0 l/m 0 min 0 min 0,0 UV-I 0 W/m 18,0 km/h (3 Bft)
20.02.2014 20:22 8,9 C 6,7 C 94 % 1004,0 hPa 0,0 l/m 0 min 0 min 0,0 UV-I 0 W/m 15,4 km/h (3 Bft)
20.02.2014 20:24 8,9 C 7,2 C 94 % 1004,0 hPa 0,0 l/m 0 min 0 min 0,0 UV-I 0 W/m 20,6 km/h (4 Bft)
20.02.2014 20:26 8,9 C 7,2 C 94 % 1004,0 hPa 0,0 l/m 0 min 0 min 0,0 UV-I 0 W/m 12,9 km/h (3 Bft)
20.02.2014 20:28 9,0 C 7,2 C 93 % 1004,0 hPa 0,0 l/m 0 min 0 min 0,0 UV-I 0 W/m 12,9 km/h (3 Bft)
20.02.2014 20:30 9,1 C 7,2 C 93 % 1003,9 hPa 0,0 l/m 0 min 0 min 0,0 UV-I 0 W/m 18,0 km/h (3 Bft)
20.02.2014 20:32 9,1 C 7,2 C 93 % 1003,9 hPa 0,0 l/m 0 min 0 min 0,0 UV-I 0 W/m 23,2 km/h (4 Bft)
20.02.2014 20:34 9,1 C 7,2 C 93 % 1003,8 hPa 0,0 l/m 0 min 0 min 0,0 UV-I 0 W/m 15,4 km/h (3 Bft)
20.02.2014 20:36 9,1 C 7,2 C 93 % 1003,8 hPa 0,0 l/m 0 min 0 min 0,0 UV-I 0 W/m 15,4 km/h (3 Bft)
20.02.2014 20:38 9,2 C 7,2 C 92 % 1003,9 hPa 0,0 l/m 0 min 0 min 0,0 UV-I 0 W/m 20,6 km/h (4 Bft)
20.02.2014 20:40 9,2 C 7,2 C 93 % 1003,8 hPa 0,0 l/m 0 min 0 min 0,0 UV-I 0 W/m 15,4 km/h (3 Bft)
20.02.2014 20:42 9,2 C 7,2 C 92 % 1003,8 hPa 0,0 l/m 0 min 0 min 0,0 UV-I 0 W/m 10,3 km/h (2 Bft)
20.02.2014 20:44 9,2 C 7,2 C 92 % 1003,9 hPa 0,0 l/m 0 min 2 min 0,0 UV-I 0 W/m 10,3 km/h (2 Bft)
20.02.2014 20:46 9,2 C 7,2 C 92 % 1003,9 hPa 0,0 l/m 0 min 2 min 0,0 UV-I 0 W/m 15,4 km/h (3 Bft)
20.02.2014 20:48 9,2 C 7,2 C 92 % 1003,8 hPa 0,0 l/m 0 min 0 min 0,0 UV-I 0 W/m 12,9 km/h (3 Bft)
20.02.2014 20:50 9,3 C 7,2 C 92 % 1003,8 hPa 0,0 l/m 0 min 0 min 0,0 UV-I 0 W/m 12,9 km/h (3 Bft)
20.02.2014 20:52 9,3 C 7,2 C 91 % 1003,8 hPa 0,0 l/m 0 min 2 min 0,0 UV-I 0 W/m 15,4 km/h (3 Bft)
20.02.2014 20:54 9,3 C 7,2 C 91 % 1003,8 hPa 0,0 l/m 0 min 2 min 0,0 UV-I 0 W/m 15,4 km/h (3 Bft)
20.02.2014 20:56 9,3 C 7,2 C 91 % 1003,8 hPa 0,0 l/m 0 min 2 min 0,0 UV-I 0 W/m 12,9 km/h (3 Bft)
20.02.2014 20:58 9,3 C 7,2 C 91 % 1003,8 hPa 0,0 l/m 0 min 0 min 0,0 UV-I 0 W/m 5,1 km/h (1 Bft)
20.02.2014 21:00 9,3 C 7,2 C 91 % 1003,8 hPa 0,0 l/m 0 min 2 min 0,0 UV-I 0 W/m 12,9 km/h (3 Bft)
20.02.2014 21:02 9,3 C 7,2 C 91 % 1003,8 hPa 0,0 l/m 0 min 2 min 0,0 UV-I 0 W/m 18,0 km/h (3 Bft)
20.02.2014 21:04 9,3 C 7,2 C 91 % 1003,8 hPa 0,0 l/m 0 min 2 min 0,0 UV-I 0 W/m 12,9 km/h (3 Bft)
20.02.2014 21:06 9,3 C 7,2 C 91 % 1003,8 hPa 0,0 l/m 0 min 2 min 0,0 UV-I 0 W/m 7,7 km/h (2 Bft)
20.02.2014 21:08 9,3 C 7,2 C 91 % 1003,8 hPa 0,0 l/m 0 min 2 min 0,0 UV-I 0 W/m 10,3 km/h (2 Bft)
20.02.2014 21:10 9,3 C 7,2 C 91 % 1003,8 hPa 0,0 l/m 0 min 2 min 0,0 UV-I 0 W/m 12,9 km/h (3 Bft)
20.02.2014 21:12 9,3 C 7,2 C 91 % 1003,8 hPa 0,0 l/m 0 min 2 min 0,0 UV-I 0 W/m 12,9 km/h (3 Bft)
20.02.2014 21:14 9,3 C 7,2 C 91 % 1003,8 hPa 0,0 l/m 0 min 2 min 0,0 UV-I 0 W/m 0,0 km/h (0 Bft)
20.02.2014 21:16 9,3 C 7,2 C 91 % 1003,8 hPa 0,0 l/m 0 min 2 min 0,0 UV-I 0 W/m 12,9 km/h (3 Bft)
20.02.2014 21:18 9,3 C 7,2 C 91 % 1003,8 hPa 0,2 l/m 0 min 2 min 0,0 UV-I 0 W/m 10,3 km/h (2 Bft)
20.02.2014 21:20 9,3 C 7,2 C 91 % 1003,7 hPa 0,0 l/m 0 min 2 min 0,0 UV-I 0 W/m 7,7 km/h (2 Bft)
20.02.2014 21:22 9,3 C 7,2 C 91 % 1003,7 hPa 0,0 l/m 0 min 2 min 0,0 UV-I 0 W/m 2,6 km/h (1 Bft)
20.02.2014 21:24 9,3 C 7,2 C 91 % 1003,6 hPa 0,0 l/m 0 min 2 min 0,0 UV-I 0 W/m 15,4 km/h (3 Bft)
20.02.2014 21:26 9,2 C 7,2 C 91 % 1003,7 hPa 0,0 l/m 0 min 2 min 0,0 UV-I 0 W/m 7,7 km/h (2 Bft)
20.02.2014 21:28 9,2 C 7,2 C 92 % 1003,8 hPa 0,0 l/m 0 min 2 min 0,0 UV-I 0 W/m 5,1 km/h (1 Bft)
20.02.2014 21:30 9,2 C 7,2 C 92 % 1003,8 hPa 0,0 l/m 0 min 2 min 0,0 UV-I 0 W/m 5,1 km/h (1 Bft)
20.02.2014 21:32 9,2 C 7,2 C 92 % 1003,7 hPa 0,0 l/m 0 min 2 min 0,0 UV-I 0 W/m 7,7 km/h (2 Bft)
20.02.2014 21:34 9,2 C 7,2 C 92 % 1003,6 hPa 0,0 l/m 0 min 2 min 0,0 UV-I 0 W/m 2,6 km/h (1 Bft)
20.02.2014 21:36 9,2 C 7,2 C 92 % 1003,6 hPa 0,0 l/m 0 min 2 min 0,0 UV-I 0 W/m 15,4 km/h (3 Bft)
20.02.2014 21:38 9,2 C 7,2 C 92 % 1003,6 hPa 0,0 l/m 0 min 2 min 0,0 UV-I 0 W/m 10,3 km/h (2 Bft)
20.02.2014 21:40 9,2 C 7,2 C 92 % 1003,6 hPa 0,0 l/m 0 min 2 min 0,0 UV-I 0 W/m 7,7 km/h (2 Bft)
20.02.2014 21:42 9,2 C 7,2 C 92 % 1003,5 hPa 0,0 l/m 0 min 2 min 0,0 UV-I 0 W/m 12,9 km/h (3 Bft)
20.02.2014 21:44 9,2 C 7,2 C 92 % 1003,6 hPa 0,0 l/m 0 min 2 min 0,0 UV-I 0 W/m 12,9 km/h (3 Bft)
20.02.2014 21:46 9,1 C 7,2 C 93 % 1003,6 hPa 0,0 l/m 0 min 2 min 0,0 UV-I 0 W/m 18,0 km/h (3 Bft)
20.02.2014 21:48 9,1 C 7,2 C 92 % 1003,6 hPa 0,0 l/m 0 min 0 min 0,0 UV-I 0 W/m 2,6 km/h (1 Bft)
20.02.2014 21:50 9,1 C 7,2 C 92 % 1003,5 hPa 0,0 l/m 0 min 2 min 0,0 UV-I 0 W/m 15,4 km/h (3 Bft)
20.02.2014 21:52 9,1 C 7,2 C 93 % 1003,4 hPa 0,0 l/m 0 min 2 min 0,0 UV-I 0 W/m 10,3 km/h (2 Bft)
20.02.2014 21:54 9,1 C 7,2 C 93 % 1003,4 hPa 0,0 l/m 0 min 0 min 0,0 UV-I 0 W/m 12,9 km/h (3 Bft)
20.02.2014 21:56 9,1 C 7,2 C 93 % 1003,5 hPa 0,0 l/m 0 min 2 min 0,0 UV-I 0 W/m 12,9 km/h (3 Bft)
20.02.2014 21:58 9,1 C 7,2 C 93 % 1003,5 hPa 0,2 l/m 0 min 0 min 0,0 UV-I 0 W/m 20,6 km/h (4 Bft)
20.02.2014 22:00 9,1 C 7,2 C 93 % 1003,4 hPa 0,0 l/m 0 min 0 min 0,0 UV-I 0 W/m 10,3 km/h (2 Bft)
20.02.2014 22:02 9,1 C 7,2 C 93 % 1003,4 hPa 0,0 l/m 0 min 0 min 0,0 UV-I 0 W/m 10,3 km/h (2 Bft)
20.02.2014 22:04 9,1 C 7,2 C 93 % 1003,3 hPa 0,0 l/m 0 min 0 min 0,0 UV-I 0 W/m 25,7 km/h (4 Bft)
20.02.2014 22:06 9,1 C 7,2 C 93 % 1003,4 hPa 0,0 l/m 0 min 0 min 0,0 UV-I 0 W/m 18,0 km/h (3 Bft)
20.02.2014 22:08 9,1 C 7,2 C 93 % 1003,2 hPa 0,0 l/m 0 min 0 min 0,0 UV-I 0 W/m 12,9 km/h (3 Bft)
20.02.2014 22:10 9,0 C 7,2 C 93 % 1003,3 hPa 0,0 l/m 0 min 0 min 0,0 UV-I 0 W/m 12,9 km/h (3 Bft)
20.02.2014 22:12 9,0 C 7,2 C 93 % 1003,3 hPa 0,0 l/m 0 min 0 min 0,0 UV-I 0 W/m 7,7 km/h (2 Bft)
20.02.2014 22:14 9,0 C 7,2 C 93 % 1003,3 hPa 0,0 l/m 0 min 0 min 0,0 UV-I 0 W/m 12,9 km/h (3 Bft)
20.02.2014 22:16 9,0 C 7,2 C 93 % 1003,3 hPa 0,0 l/m 0 min 0 min 0,0 UV-I 0 W/m 18,0 km/h (3 Bft)
20.02.2014 22:18 9,0 C 7,2 C 94 % 1003,2 hPa 0,0 l/m 0 min 0 min 0,0 UV-I 0 W/m 7,7 km/h (2 Bft)
20.02.2014 22:20 9,0 C 7,2 C 93 % 1003,3 hPa 0,0 l/m 0 min 0 min 0,0 UV-I 0 W/m 15,4 km/h (3 Bft)
20.02.2014 22:22 9,0 C 7,2 C 93 % 1003,3 hPa 0,0 l/m 0 min 2 min 0,0 UV-I 0 W/m 7,7 km/h (2 Bft)
20.02.2014 22:24 9,0 C 7,2 C 93 % 1003,2 hPa 0,0 l/m 0 min 2 min 0,0 UV-I 0 W/m 7,7 km/h (2 Bft)
20.02.2014 22:26 9,0 C 7,2 C 94 % 1003,2 hPa 0,0 l/m 0 min 2 min 0,0 UV-I 0 W/m 7,7 km/h (2 Bft)
20.02.2014 22:28 9,0 C 7,2 C 94 % 1003,1 hPa 0,0 l/m 0 min 2 min 0,0 UV-I 0 W/m 18,0 km/h (3 Bft)
20.02.2014 22:30 9,0 C 7,2 C 94 % 1003,2 hPa 0,0 l/m 0 min 2 min 0,0 UV-I 0 W/m 10,3 km/h (2 Bft)
20.02.2014 22:32 9,0 C 7,2 C 94 % 1003,2 hPa 0,0 l/m 0 min 2 min 0,0 UV-I 0 W/m 5,1 km/h (1 Bft)
20.02.2014 22:34 9,0 C 7,2 C 94 % 1003,1 hPa 0,0 l/m 0 min 2 min 0,0 UV-I 0 W/m 10,3 km/h (2 Bft)
20.02.2014 22:36 9,0 C 7,2 C 94 % 1003,2 hPa 0,0 l/m 0 min 2 min 0,0 UV-I 0 W/m 7,7 km/h (2 Bft)
20.02.2014 22:38 9,0 C 7,2 C 94 % 1003,1 hPa 0,0 l/m 0 min 2 min 0,0 UV-I 0 W/m 15,4 km/h (3 Bft)
20.02.2014 22:40 9,0 C 7,2 C 94 % 1003,2 hPa 0,0 l/m 0 min 2 min 0,0 UV-I 0 W/m 10,3 km/h (2 Bft)
20.02.2014 22:42 9,0 C 7,2 C 94 % 1003,1 hPa 0,0 l/m 0 min 2 min 0,0 UV-I 0 W/m 12,9 km/h (3 Bft)
20.02.2014 22:44 9,0 C 7,2 C 94 % 1003,1 hPa 0,0 l/m 0 min 2 min 0,0 UV-I 0 W/m 12,9 km/h (3 Bft)
20.02.2014 22:46 9,0 C 7,2 C 94 % 1003,1 hPa 0,0 l/m 0 min 2 min 0,0 UV-I 0 W/m 12,9 km/h (3 Bft)
20.02.2014 22:48 9,0 C 7,2 C 94 % 1003,1 hPa 0,0 l/m 0 min 2 min 0,0 UV-I 0 W/m 7,7 km/h (2 Bft)
20.02.2014 22:50 9,0 C 7,2 C 94 % 1003,1 hPa 0,0 l/m 0 min 2 min 0,0 UV-I 0 W/m 18,0 km/h (3 Bft)
20.02.2014 22:52 9,0 C 7,2 C 94 % 1003,1 hPa 0,0 l/m 0 min 2 min 0,0 UV-I 0 W/m 10,3 km/h (2 Bft)
20.02.2014 22:54 9,0 C 7,2 C 94 % 1003,2 hPa 0,0 l/m 0 min 2 min 0,0 UV-I 0 W/m 10,3 km/h (2 Bft)
20.02.2014 22:56 9,0 C 7,2 C 94 % 1003,1 hPa 0,2 l/m 0 min 2 min 0,0 UV-I 0 W/m 12,9 km/h (3 Bft)
20.02.2014 22:58 9,0 C 7,2 C 94 % 1003,1 hPa 0,0 l/m 0 min 2 min 0,0 UV-I 0 W/m 2,6 km/h (1 Bft)
20.02.2014 23:00 9,0 C 7,2 C 94 % 1003,1 hPa 0,0 l/m 0 min 2 min 0,0 UV-I 0 W/m 0,0 km/h (0 Bft)
20.02.2014 23:02 9,0 C 7,2 C 94 % 1003,1 hPa 0,0 l/m 0 min 2 min 0,0 UV-I 0 W/m 7,7 km/h (2 Bft)
20.02.2014 23:04 9,0 C 7,2 C 94 % 1003,1 hPa 0,0 l/m 0 min 2 min 0,0 UV-I 0 W/m 7,7 km/h (2 Bft)
20.02.2014 23:06 9,0 C 7,2 C 94 % 1003,1 hPa 0,0 l/m 0 min 2 min 0,0 UV-I 0 W/m 10,3 km/h (2 Bft)
20.02.2014 23:08 9,0 C 7,2 C 94 % 1003,1 hPa 0,0 l/m 0 min 2 min 0,0 UV-I 0 W/m 7,7 km/h (2 Bft)
20.02.2014 23:10 9,0 C 7,2 C 95 % 1003,0 hPa 0,0 l/m 0 min 2 min 0,0 UV-I 0 W/m 7,7 km/h (2 Bft)
20.02.2014 23:12 9,0 C 7,2 C 95 % 1003,0 hPa 0,0 l/m 0 min 2 min 0,0 UV-I 0 W/m 10,3 km/h (2 Bft)
20.02.2014 23:14 9,0 C 7,2 C 95 % 1003,0 hPa 0,0 l/m 0 min 2 min 0,0 UV-I 0 W/m 5,1 km/h (1 Bft)
20.02.2014 23:16 9,0 C 7,2 C 95 % 1002,9 hPa 0,0 l/m 0 min 2 min 0,0 UV-I 0 W/m 5,1 km/h (1 Bft)
20.02.2014 23:18 9,0 C 7,2 C 95 % 1003,0 hPa 0,0 l/m 0 min 0 min 0,0 UV-I 0 W/m 12,9 km/h (3 Bft)
20.02.2014 23:20 9,0 C 7,2 C 95 % 1002,9 hPa 0,0 l/m 0 min 0 min 0,0 UV-I 0 W/m 0,0 km/h (0 Bft)
20.02.2014 23:22 9,0 C 7,2 C 95 % 1002,8 hPa 0,0 l/m 0 min 0 min 0,0 UV-I 0 W/m 2,6 km/h (1 Bft)
20.02.2014 23:24 9,0 C 7,2 C 95 % 1002,8 hPa 0,0 l/m 0 min 0 min 0,0 UV-I 0 W/m 12,9 km/h (3 Bft)
20.02.2014 23:26 9,0 C 7,2 C 95 % 1002,9 hPa 0,0 l/m 0 min 0 min 0,0 UV-I 0 W/m 7,7 km/h (2 Bft)
20.02.2014 23:28 9,0 C 7,2 C 95 % 1002,9 hPa 0,0 l/m 0 min 0 min 0,0 UV-I 0 W/m 0,0 km/h (0 Bft)
20.02.2014 23:30 9,0 C 7,2 C 95 % 1002,9 hPa 0,0 l/m 0 min 0 min 0,0 UV-I 0 W/m 7,7 km/h (2 Bft)
20.02.2014 23:32 9,0 C 7,2 C 95 % 1002,9 hPa 0,0 l/m 0 min 0 min 0,0 UV-I 0 W/m 12,9 km/h (3 Bft)
20.02.2014 23:34 9,0 C 7,2 C 95 % 1002,9 hPa 0,0 l/m 0 min 0 min 0,0 UV-I 0 W/m 5,1 km/h (1 Bft)
20.02.2014 23:36 9,0 C 7,2 C 95 % 1002,8 hPa 0,0 l/m 0 min 0 min 0,0 UV-I 0 W/m 12,9 km/h (3 Bft)
20.02.2014 23:38 9,0 C 7,2 C 95 % 1002,8 hPa 0,0 l/m 0 min 0 min 0,0 UV-I 0 W/m 15,4 km/h (3 Bft)
20.02.2014 23:40 9,0 C 7,2 C 95 % 1002,8 hPa 0,0 l/m 0 min 0 min 0,0 UV-I 0 W/m 10,3 km/h (2 Bft)
20.02.2014 23:42 9,0 C 7,2 C 95 % 1002,7 hPa 0,0 l/m 0 min 0 min 0,0 UV-I 0 W/m 7,7 km/h (2 Bft)
20.02.2014 23:44 9,0 C 7,2 C 95 % 1002,7 hPa 0,0 l/m 0 min 2 min 0,0 UV-I 0 W/m 7,7 km/h (2 Bft)
20.02.2014 23:46 9,1 C 7,2 C 95 % 1002,8 hPa 0,0 l/m 0 min 2 min 0,0 UV-I 0 W/m 5,1 km/h (1 Bft)
20.02.2014 23:48 9,1 C 7,2 C 95 % 1002,9 hPa 0,0 l/m 0 min 2 min 0,0 UV-I 0 W/m 0,0 km/h (0 Bft)
20.02.2014 23:50 9,1 C 7,2 C 95 % 1002,8 hPa 0,2 l/m 0 min 2 min 0,0 UV-I 0 W/m 0,0 km/h (0 Bft)
20.02.2014 23:52 9,1 C 7,2 C 95 % 1002,9 hPa 0,0 l/m 0 min 2 min 0,0 UV-I 0 W/m 12,9 km/h (3 Bft)
20.02.2014 23:54 9,1 C 7,2 C 95 % 1002,9 hPa 0,0 l/m 0 min 2 min 0,0 UV-I 0 W/m 2,6 km/h (1 Bft)
20.02.2014 23:56 9,1 C 7,8 C 95 % 1003,0 hPa 0,0 l/m 0 min 2 min 0,0 UV-I 0 W/m 7,7 km/h (2 Bft)
20.02.2014 23:58 9,1 C 7,8 C 96 % 1002,9 hPa 0,0 l/m 0 min 2 min 0,0 UV-I 0 W/m 23,2 km/h (4 Bft)
_ Min-Zeit 08:10 08:06 11:38 23:42 - - - - - 00:00
Minimum _ 5,1 C 3,3 C 73 % 1002,7 hPa - - - - - 0,0 km/h (0 Bft)
_ Max-Zeit 12:42 11:54 23:58 00:52 17:04 08:52 12:12 00:00 11:24 13:02
Maximum _ 11,7 C 11,1 C 96 % 1014,3 hPa 0,2 l/m 2 min 2 min 0,0 UV-I 345 W/m 43,8 km/h
S-SW (6 Bft)
Durchschnitt _ 8,5 C 7,1 C 88 % 1008,5 hPa #2,4 l/m #2:18 h #4:52 h 0,0 UV-I 112 W/m 12,0 km/h (2 Bft)
© 2014 W. Hausmann